Darstellungsparameter: Aktuell verwendete Einstellungen:
Skalierung der Graphiken ... ?
xyx+y,   Skalierungsfaktor:      Skalierung: Modus: x, Faktor: 1
Darstellungszeitraum ... ?
Vom - - bis: - -   Zeitraum: 20.02.2006 - 26.02.2006
Min/Max/Avg-Anzeige ... ?
Zeige MMA aktuell
Zeige MMA Monat
Zeige MMA alles
Zeige --A aktuell
Zeige --A Monat
Zeige --A alles
Keine MMA-Anzeige
MMA:
Keine MMA-Graphiken
MMA-Basis: 20.02.2006 - 26.02.2006
Quicknavigation für Darstellung... ?
Tage:      1T, 2T, 3T, 5T -1T -2T -3T -5T +1T +2T +3T +5T
Wochen: 1W, 2W, 3W -1W -2W -3W +1W +2W +3W
Monate: 1M, 3M, 6M -1M -3M -6M +1M +3M +6M
Jahre:    1J, 3J, 5J, 10J -1J -3J -5J -10J +1J +3J +5J +10J
Nutze für die Darstellung ... ?
Originaldaten oder Mittelwerte auf ...
Stundenbasis Tagesbasis Wochenbasis
Monatsbasis Jahresbasis      Datenbasis: Original-Daten
Darstellen als:
Statistik (Auto) Statistik J:M      Darstellung:
Zur Graphik,    zurück zur Übersicht aller Sensoren.
 
Tabellarische Datenbersicht: ?
 
Sensor: Nr:Datum:Temp:Abs-Feuchte:Windchill:Wind:
Aussen-T/F 1 20-02-2006 00:04:38 5.7 C 4.55 g/m*3 5.7 C 0 km/h
2 20-02-2006 00:14:38 5.6 C 4.6 g/m*3 5.6 C 0 km/h
3 20-02-2006 00:24:38 5.6 C 4.6 g/m*3 5.6 C 0 km/h
4 20-02-2006 00:34:37 5.6 C 4.67 g/m*3 5.6 C 0 km/h
5 20-02-2006 00:44:37 5.5 C 4.64 g/m*3 5.5 C 0 km/h
6 20-02-2006 00:54:37 5.5 C 4.57 g/m*3 5.5 C 0 km/h
7 20-02-2006 01:04:38 5.4 C 4.6 g/m*3 5.4 C 0 km/h
8 20-02-2006 01:14:38 5.3 C 4.57 g/m*3 5.3 C 0 km/h
9 20-02-2006 01:24:38 5.1 C 4.51 g/m*3 5.1 C 0 km/h
10 20-02-2006 01:34:37 5 C 4.55 g/m*3 5 C 0 km/h
11 20-02-2006 01:44:37 5 C 4.55 g/m*3 5 C 0 km/h
12 20-02-2006 01:54:37 5.2 C 4.54 g/m*3 5.2 C 0 km/h
13 20-02-2006 02:04:37 5.3 C 4.57 g/m*3 5.3 C 0 km/h
14 20-02-2006 02:14:37 5.3 C 4.44 g/m*3 5.3 C 0 km/h
15 20-02-2006 02:24:37 5.1 C 4.45 g/m*3 5.1 C 0 km/h
16 20-02-2006 02:34:37 4.8 C 4.49 g/m*3 4.8 C 0 km/h
17 20-02-2006 02:44:37 4.7 C 4.53 g/m*3 4.7 C 0 km/h
18 20-02-2006 02:55:39 4.5 C 4.47 g/m*3 4.5 C 0 km/h
19 20-02-2006 03:05:39 4.5 C 4.54 g/m*3 4.5 C 0 km/h
20 20-02-2006 03:15:40 4.5 C 4.54 g/m*3 4.5 C 0 km/h
21 20-02-2006 03:25:40 4.6 C 4.57 g/m*3 4.6 C 0 km/h
22 20-02-2006 03:35:39 4.6 C 4.57 g/m*3 4.6 C 0 km/h
23 20-02-2006 03:45:39 4.6 C 4.57 g/m*3 4.6 C 0 km/h
24 20-02-2006 03:55:39 4.7 C 4.6 g/m*3 4.7 C 0 km/h
25 20-02-2006 04:05:39 4.7 C 4.6 g/m*3 4.7 C 0 km/h
Sensor: Nr:Datum:Temp:Abs-Feuchte:Windchill:Wind:
Aussen-T/F 26 20-02-2006 04:15:39 4.7 C 4.6 g/m*3 4.7 C 0 km/h
27 20-02-2006 04:25:39 4.8 C 4.63 g/m*3 4.8 C 0 km/h
28 20-02-2006 04:35:39 4.9 C 4.59 g/m*3 4.9 C 0 km/h
29 20-02-2006 04:45:40 5 C 4.48 g/m*3 5 C 0 km/h
30 20-02-2006 04:55:40 5 C 4.48 g/m*3 5 C 0 km/h
31 20-02-2006 05:05:39 4.9 C 4.59 g/m*3 4.9 C 0 km/h
32 20-02-2006 05:15:39 4.7 C 4.6 g/m*3 4.7 C 0 km/h
33 20-02-2006 05:25:39 4.5 C 4.93 g/m*3 4.5 C 0 km/h
34 20-02-2006 05:35:40 4.3 C 5.06 g/m*3 4.3 C 0 km/h
35 20-02-2006 05:45:39 4.2 C 5.15 g/m*3 4.2 C 0 km/h
36 20-02-2006 05:55:39 4.1 C 5.25 g/m*3 4.1 C 0 km/h
37 20-02-2006 06:05:39 4 C 5.28 g/m*3 4 C 0 km/h
38 20-02-2006 06:15:40 4 C 5.34 g/m*3 4 C 0 km/h
39 20-02-2006 06:25:40 3.9 C 5.37 g/m*3 3.9 C 0 km/h
40 20-02-2006 06:35:39 3.9 C 5.37 g/m*3 3.9 C 0 km/h
41 20-02-2006 06:45:40 3.8 C 5.33 g/m*3 3.8 C 0 km/h
42 20-02-2006 06:55:40 3.8 C 5.33 g/m*3 3.8 C 0 km/h
43 20-02-2006 07:05:39 3.8 C 5.33 g/m*3 3.8 C 0 km/h
44 20-02-2006 07:15:39 3.8 C 5.4 g/m*3 3.8 C 0 km/h
45 20-02-2006 07:25:39 3.7 C 5.36 g/m*3 3.7 C 0 km/h
46 20-02-2006 07:35:39 3.6 C 5.32 g/m*3 3.6 C 0 km/h
47 20-02-2006 07:45:39 3.5 C 5.29 g/m*3 3.5 C 0 km/h
48 20-02-2006 07:55:39 3.4 C 5.25 g/m*3 3.4 C 0 km/h
49 20-02-2006 08:05:39 3.4 C 5.31 g/m*3 3.4 C 0 km/h
50 20-02-2006 08:15:40 3.4 C 5.31 g/m*3 3.4 C 0 km/h
Sensor: Nr:Datum:Temp:Abs-Feuchte:Windchill:Wind:
Aussen-T/F 51 20-02-2006 08:25:40 3.4 C 5.31 g/m*3 3.4 C 0 km/h
52 20-02-2006 08:35:40 3.3 C 5.28 g/m*3 3.3 C 0 km/h
53 20-02-2006 08:45:40 3.3 C 5.34 g/m*3 3.3 C 0 km/h
54 20-02-2006 08:55:40 3.2 C 5.24 g/m*3 3.2 C 0 km/h
55 20-02-2006 09:05:40 3.1 C 5.21 g/m*3 3.1 C 0 km/h
56 20-02-2006 09:15:40 3.1 C 5.27 g/m*3 3.1 C 0 km/h
57 20-02-2006 09:25:40 3.4 C 5.37 g/m*3 3.4 C 0 km/h
58 20-02-2006 09:35:39 3.3 C 5.34 g/m*3 3.3 C 0 km/h
59 20-02-2006 09:45:39 3.3 C 5.34 g/m*3 3.3 C 0 km/h
60 20-02-2006 09:55:39 3.2 C 5.3 g/m*3 3.2 C 0 km/h
61 20-02-2006 10:05:39 3.2 C 5.36 g/m*3 3.2 C 0 km/h
62 20-02-2006 10:15:40 3.3 C 5.4 g/m*3 3.3 C 0 km/h
63 20-02-2006 10:25:40 3.3 C 5.4 g/m*3 3.3 C 0 km/h
64 20-02-2006 10:35:40 3.5 C 5.47 g/m*3 3.5 C 0 km/h
65 20-02-2006 10:45:40 3.4 C 5.44 g/m*3 3.4 C 0 km/h
66 20-02-2006 10:55:40 3.4 C 5.44 g/m*3 3.4 C 0 km/h
67 20-02-2006 11:05:40 3.6 C 5.51 g/m*3 3.6 C 0 km/h
68 20-02-2006 11:15:40 3.7 C 5.55 g/m*3 3.7 C 0 km/h
69 20-02-2006 11:25:40 3.7 C 5.55 g/m*3 3.7 C 0 km/h
70 20-02-2006 11:35:40 3.7 C 5.55 g/m*3 3.7 C 0 km/h
71 20-02-2006 11:45:40 3.7 C 5.55 g/m*3 3.7 C 0 km/h
72 20-02-2006 11:55:40 3.8 C 5.58 g/m*3 3.8 C 0 km/h
73 20-02-2006 12:05:40 4.1 C 5.7 g/m*3 4.1 C 0 km/h
74 20-02-2006 12:15:40 4.4 C 5.81 g/m*3 4.4 C 0 km/h
75 20-02-2006 12:25:40 4.5 C 5.85 g/m*3 4.5 C 0 km/h
Sensor: Nr:Datum:Temp:Abs-Feuchte:Windchill:Wind:
Aussen-T/F 76 20-02-2006 12:35:40 4.7 C 5.86 g/m*3 4.7 C 0 km/h
77 20-02-2006 12:45:40 4.5 C 5.72 g/m*3 4.5 C 0 km/h
78 20-02-2006 12:55:40 4.5 C 5.65 g/m*3 4.5 C 0 km/h
79 20-02-2006 13:05:40 4.5 C 5.65 g/m*3 4.5 C 0 km/h
80 20-02-2006 13:15:40 4.8 C 5.77 g/m*3 4.8 C 0 km/h
81 20-02-2006 13:25:40 4.9 C 5.81 g/m*3 4.9 C 0 km/h
82 20-02-2006 13:35:40 5 C 5.71 g/m*3 5 C 0 km/h
83 20-02-2006 13:45:40 5.1 C 5.61 g/m*3 5.1 C 0 km/h
84 20-02-2006 13:55:40 5 C 5.5 g/m*3 5 C 0 km/h
85 20-02-2006 14:05:40 5.1 C 5.61 g/m*3 5.1 C 0 km/h
86 20-02-2006 14:15:41 5.2 C 5.58 g/m*3 5.2 C 0 km/h
87 20-02-2006 14:25:41 5.2 C 5.58 g/m*3 5.2 C 0 km/h
88 20-02-2006 14:35:40 5.4 C 5.65 g/m*3 5.4 C 0 km/h
89 20-02-2006 14:45:41 5.5 C 5.69 g/m*3 5.5 C 0 km/h
90 20-02-2006 14:55:41 5.6 C 5.73 g/m*3 5.6 C 0 km/h
91 20-02-2006 15:05:40 5.6 C 5.66 g/m*3 5.6 C 0 km/h
92 20-02-2006 15:15:40 5.5 C 5.62 g/m*3 5.5 C 0 km/h
93 20-02-2006 15:25:40 5.5 C 5.62 g/m*3 5.5 C 0 km/h
94 20-02-2006 15:35:40 5.4 C 5.65 g/m*3 5.4 C 0 km/h
95 20-02-2006 15:45:40 5.4 C 5.65 g/m*3 5.4 C 0 km/h
96 20-02-2006 15:55:40 5.3 C 5.61 g/m*3 5.3 C 0 km/h
97 20-02-2006 16:05:40 5.3 C 5.61 g/m*3 5.3 C 0 km/h
98 20-02-2006 16:15:41 5.2 C 5.65 g/m*3 5.2 C 0 km/h
99 20-02-2006 16:25:41 5.2 C 5.65 g/m*3 5.2 C 0 km/h
100 20-02-2006 16:35:41 5.1 C 5.61 g/m*3 5.1 C 0 km/h
Sensor: Nr:Datum:Temp:Abs-Feuchte:Windchill:Wind:
Aussen-T/F 101 20-02-2006 16:45:41 5 C 5.64 g/m*3 5 C 0 km/h
102 20-02-2006 16:55:41 4.9 C 5.67 g/m*3 4.9 C 0 km/h
103 20-02-2006 17:05:40 4.8 C 5.63 g/m*3 4.8 C 0 km/h
104 20-02-2006 17:15:40 4.7 C 5.6 g/m*3 4.7 C 0 km/h
105 20-02-2006 17:25:40 4.4 C 5.55 g/m*3 4.4 C 0 km/h
106 20-02-2006 17:35:40 4.4 C 5.62 g/m*3 4.4 C 0 km/h
107 20-02-2006 17:45:40 4.3 C 5.58 g/m*3 4.3 C 0 km/h
108 20-02-2006 17:55:40 4.2 C 5.61 g/m*3 4.2 C 0 km/h
109 20-02-2006 18:05:40 4.1 C 5.57 g/m*3 4.1 C 0 km/h
110 20-02-2006 18:15:41 4 C 5.53 g/m*3 4 C 0 km/h
111 20-02-2006 18:25:41 3.8 C 5.46 g/m*3 3.8 C 0 km/h
112 20-02-2006 18:35:41 3.7 C 5.42 g/m*3 3.7 C 0 km/h
113 20-02-2006 18:45:41 3.5 C 5.35 g/m*3 3.5 C 0 km/h
114 20-02-2006 18:55:41 3.6 C 5.39 g/m*3 3.6 C 0 km/h
115 20-02-2006 19:05:41 3.7 C 5.48 g/m*3 3.7 C 0 km/h
116 20-02-2006 19:15:40 3.5 C 5.41 g/m*3 3.5 C 0 km/h
117 20-02-2006 19:25:40 3.5 C 5.41 g/m*3 3.5 C 0 km/h
118 20-02-2006 19:35:40 3.6 C 5.45 g/m*3 3.6 C 0 km/h
119 20-02-2006 19:45:41 3.7 C 5.48 g/m*3 3.7 C 0 km/h
120 20-02-2006 19:55:41 3.7 C 5.55 g/m*3 3.7 C 0 km/h
121 20-02-2006 20:05:40 3.7 C 5.55 g/m*3 3.7 C 0 km/h
122 20-02-2006 20:15:40 3.7 C 5.55 g/m*3 3.7 C 0 km/h
123 20-02-2006 20:25:40 3.5 C 5.47 g/m*3 3.5 C 0 km/h
124 20-02-2006 20:35:41 3.5 C 5.47 g/m*3 3.5 C 0 km/h
125 20-02-2006 20:45:41 3.4 C 5.44 g/m*3 3.4 C 0 km/h
Sensor: Nr:Datum:Temp:Abs-Feuchte:Windchill:Wind:
Aussen-T/F 126 20-02-2006 20:55:41 3.4 C 5.44 g/m*3 3.4 C 0 km/h
127 20-02-2006 21:05:41 3.4 C 5.44 g/m*3 3.4 C 0 km/h
128 20-02-2006 21:15:41 3.3 C 5.4 g/m*3 3.3 C 0 km/h
129 20-02-2006 21:25:41 3.3 C 5.4 g/m*3 3.3 C 0 km/h
130 20-02-2006 21:35:42 3.2 C 5.36 g/m*3 3.2 C 0 km/h
131 20-02-2006 21:45:41 3.2 C 5.42 g/m*3 3.2 C 0 km/h
132 20-02-2006 21:55:41 3.1 C 5.39 g/m*3 3.1 C 0 km/h
133 20-02-2006 22:05:41 3 C 5.35 g/m*3 3 C 0 km/h
134 20-02-2006 22:15:41 3 C 5.35 g/m*3 3 C 0 km/h
135 20-02-2006 22:25:41 2.9 C 5.37 g/m*3 2.9 C 0 km/h
136 20-02-2006 22:35:41 2.9 C 5.37 g/m*3 2.9 C 0 km/h
137 20-02-2006 22:45:41 2.9 C 5.37 g/m*3 2.9 C 0 km/h
138 20-02-2006 22:55:41 2.8 C 5.34 g/m*3 2.8 C 0 km/h
139 20-02-2006 23:05:41 2.8 C 5.34 g/m*3 2.8 C 0 km/h
140 20-02-2006 23:15:41 2.8 C 5.34 g/m*3 2.8 C 0 km/h
141 20-02-2006 23:25:41 2.8 C 5.34 g/m*3 2.8 C 0 km/h
142 20-02-2006 23:35:42 2.8 C 5.34 g/m*3 2.8 C 0 km/h
143 20-02-2006 23:45:41 2.7 C 5.3 g/m*3 2.7 C 0 km/h
144 20-02-2006 23:55:41 2.7 C 5.3 g/m*3 2.7 C 0 km/h
145 21-02-2006 00:05:41 2.7 C 5.3 g/m*3 2.7 C 0 km/h
146 21-02-2006 00:15:41 2.7 C 5.3 g/m*3 2.7 C 0 km/h
147 21-02-2006 00:25:41 2.7 C 5.36 g/m*3 2.7 C 0 km/h
148 21-02-2006 00:35:41 2.7 C 5.36 g/m*3 2.7 C 0 km/h
149 21-02-2006 00:45:41 2.7 C 5.36 g/m*3 2.7 C 0 km/h
150 21-02-2006 00:55:41 2.8 C 5.4 g/m*3 2.8 C 0 km/h
Sensor: Nr:Datum:Temp:Abs-Feuchte:Windchill:Wind:
Aussen-T/F 151 21-02-2006 01:05:41 2.6 C 5.32 g/m*3 2.6 C 0 km/h
152 21-02-2006 01:15:42 2.6 C 5.32 g/m*3 2.6 C 0 km/h
153 21-02-2006 01:25:42 2.6 C 5.32 g/m*3 2.6 C 0 km/h
154 21-02-2006 01:35:41 2.7 C 5.36 g/m*3 2.7 C 0 km/h
155 21-02-2006 01:45:42 2.7 C 5.36 g/m*3 2.7 C 0 km/h
156 21-02-2006 01:55:42 2.7 C 5.36 g/m*3 2.7 C 0 km/h
157 21-02-2006 02:05:42 2.7 C 5.36 g/m*3 2.7 C 0 km/h
158 21-02-2006 02:15:42 2.6 C 5.32 g/m*3 2.6 C 0 km/h
159 21-02-2006 02:25:42 2.6 C 5.32 g/m*3 2.6 C 0 km/h
160 21-02-2006 02:35:41 2.6 C 5.32 g/m*3 2.6 C 0 km/h
161 21-02-2006 02:46:43 2.4 C 5.25 g/m*3 2.4 C 0 km/h
162 21-02-2006 02:56:43 2.3 C 5.22 g/m*3 2.3 C 0 km/h
163 21-02-2006 03:06:43 2.5 C 5.29 g/m*3 2.5 C 0 km/h
164 21-02-2006 03:16:44 2.5 C 5.29 g/m*3 2.5 C 0 km/h
165 21-02-2006 03:26:44 2.5 C 5.29 g/m*3 2.5 C 0 km/h
166 21-02-2006 03:36:43 2.4 C 5.25 g/m*3 2.4 C 0 km/h
167 21-02-2006 03:46:43 2.2 C 5.18 g/m*3 2.2 C 0 km/h
168 21-02-2006 03:56:43 2.3 C 5.22 g/m*3 2.3 C 0 km/h
169 21-02-2006 04:06:44 2.1 C 5.15 g/m*3 2.1 C 0 km/h
170 21-02-2006 04:16:43 1.6 C 4.97 g/m*3 1.6 C 0 km/h
171 21-02-2006 04:26:44 1.7 C 5.01 g/m*3 1.7 C 0 km/h
172 21-02-2006 04:36:43 1.7 C 5.01 g/m*3 1.7 C 0 km/h
173 21-02-2006 04:46:43 1.7 C 5.01 g/m*3 1.7 C 0 km/h
174 21-02-2006 04:56:43 1.9 C 5.13 g/m*3 1.9 C 0 km/h
175 21-02-2006 05:06:43 1.9 C 5.13 g/m*3 1.9 C 0 km/h
Sensor: Nr:Datum:Temp:Abs-Feuchte:Windchill:Wind:
Aussen-T/F 176 21-02-2006 05:16:44 1.7 C 5.06 g/m*3 1.7 C 0 km/h
177 21-02-2006 05:26:44 1.8 C 5.1 g/m*3 1.8 C 0 km/h
178 21-02-2006 05:36:43 1.9 C 5.13 g/m*3 1.9 C 0 km/h
179 21-02-2006 05:46:44 1.8 C 5.1 g/m*3 1.8 C 0 km/h
180 21-02-2006 05:56:44 1.8 C 5.1 g/m*3 1.8 C 0 km/h
181 21-02-2006 06:06:44 1.9 C 5.13 g/m*3 1.9 C 0 km/h
182 21-02-2006 06:16:43 1.8 C 5.1 g/m*3 1.8 C 0 km/h
183 21-02-2006 06:26:44 1.7 C 5.06 g/m*3 1.7 C 0 km/h
184 21-02-2006 06:36:43 1.7 C 5.06 g/m*3 1.7 C 0 km/h
185 21-02-2006 06:46:43 1.7 C 5.06 g/m*3 1.7 C 0 km/h
186 21-02-2006 06:56:44 1.6 C 5.03 g/m*3 1.6 C 0 km/h
187 21-02-2006 07:06:43 1.6 C 5.08 g/m*3 1.6 C 0 km/h
188 21-02-2006 07:16:43 1.6 C 5.08 g/m*3 1.6 C 0 km/h
189 21-02-2006 07:26:43 1.7 C 5.12 g/m*3 1.7 C 0 km/h
190 21-02-2006 07:36:43 1.7 C 5.12 g/m*3 1.7 C 0 km/h
191 21-02-2006 07:46:43 1.8 C 5.15 g/m*3 1.8 C 0 km/h
192 21-02-2006 07:56:43 1.9 C 5.19 g/m*3 1.9 C 0 km/h
193 21-02-2006 08:06:44 2 C 5.22 g/m*3 2 C 0 km/h
194 21-02-2006 08:16:44 2.1 C 5.26 g/m*3 2.1 C 0 km/h
195 21-02-2006 08:26:44 2 C 5.22 g/m*3 2 C 0 km/h
196 21-02-2006 08:36:43 2 C 5.22 g/m*3 2 C 0 km/h
197 21-02-2006 08:46:44 2 C 5.22 g/m*3 2 C 0 km/h
198 21-02-2006 08:56:44 2.1 C 5.26 g/m*3 2.1 C 0 km/h
199 21-02-2006 09:06:43 2.2 C 5.29 g/m*3 2.2 C 0 km/h
200 21-02-2006 09:16:43 2.3 C 5.33 g/m*3 2.3 C 0 km/h
Sensor: Nr:Datum:Temp:Abs-Feuchte:Windchill:Wind:
Aussen-T/F 201 21-02-2006 09:26:43 2.2 C 5.29 g/m*3 2.2 C 0 km/h
202 21-02-2006 09:36:44 2.2 C 5.29 g/m*3 2.2 C 0 km/h
203 21-02-2006 09:46:43 2.2 C 5.29 g/m*3 2.2 C 0 km/h
204 21-02-2006 09:56:43 2.4 C 5.37 g/m*3 2.4 C 0 km/h
205 21-02-2006 10:06:44 2.6 C 5.44 g/m*3 2.6 C 0 km/h
206 21-02-2006 10:16:44 2.7 C 5.48 g/m*3 2.7 C 0 km/h
207 21-02-2006 10:26:44 2.8 C 5.51 g/m*3 2.8 C 0 km/h
208 21-02-2006 10:36:44 2.8 C 5.46 g/m*3 2.8 C 0 km/h
209 21-02-2006 10:46:44 3 C 5.47 g/m*3 3 C 0 km/h
210 21-02-2006 10:56:44 3.2 C 5.54 g/m*3 3.2 C 0 km/h
211 21-02-2006 11:06:44 3.3 C 5.52 g/m*3 3.3 C 0 km/h
212 21-02-2006 11:16:44 3.4 C 5.5 g/m*3 3.4 C 0 km/h
213 21-02-2006 11:26:44 3.4 C 5.44 g/m*3 3.4 C 0 km/h
214 21-02-2006 11:36:43 3.4 C 5.37 g/m*3 3.4 C 0 km/h
215 21-02-2006 11:46:44 3.5 C 5.35 g/m*3 3.5 C 0 km/h
216 21-02-2006 11:56:44 3.6 C 5.39 g/m*3 3.6 C 0 km/h
217 21-02-2006 12:06:44 3.7 C 5.36 g/m*3 3.7 C 0 km/h
218 21-02-2006 12:16:44 3.7 C 5.36 g/m*3 3.7 C 0 km/h
219 21-02-2006 12:26:44 3.8 C 5.4 g/m*3 3.8 C 0 km/h
220 21-02-2006 12:36:44 3.7 C 5.3 g/m*3 3.7 C 0 km/h
221 21-02-2006 12:46:44 3.7 C 5.3 g/m*3 3.7 C 0 km/h
222 21-02-2006 12:56:44 3.6 C 5.26 g/m*3 3.6 C 0 km/h
223 21-02-2006 13:06:44 3.7 C 5.3 g/m*3 3.7 C 0 km/h
224 21-02-2006 13:16:44 3.7 C 5.3 g/m*3 3.7 C 0 km/h
225 21-02-2006 13:26:44 3.7 C 5.23 g/m*3 3.7 C 0 km/h
Sensor: Nr:Datum:Temp:Abs-Feuchte:Windchill:Wind:
Aussen-T/F 226 21-02-2006 13:36:45 3.6 C 5.2 g/m*3 3.6 C 0 km/h
227 21-02-2006 13:46:44 3.7 C 5.23 g/m*3 3.7 C 0 km/h
228 21-02-2006 13:56:44 3.7 C 5.23 g/m*3 3.7 C 0 km/h
229 21-02-2006 14:06:45 3.8 C 5.27 g/m*3 3.8 C 0 km/h
230 21-02-2006 14:16:44 4 C 5.28 g/m*3 4 C 0 km/h
231 21-02-2006 14:26:44 4 C 5.21 g/m*3 4 C 0 km/h
232 21-02-2006 14:36:44 4.1 C 5.18 g/m*3 4.1 C 0 km/h
233 21-02-2006 14:46:44 4.1 C 5.18 g/m*3 4.1 C 0 km/h
234 21-02-2006 14:56:44 4.3 C 5.25 g/m*3 4.3 C 0 km/h
235 21-02-2006 15:06:44 4.5 C 5.26 g/m*3 4.5 C 0 km/h
236 21-02-2006 15:16:44 4.6 C 5.23 g/m*3 4.6 C 0 km/h
237 21-02-2006 15:26:44 4.8 C 5.3 g/m*3 4.8 C 0 km/h
238 21-02-2006 15:36:44 4.8 C 5.16 g/m*3 4.8 C 0 km/h
239 21-02-2006 15:46:44 4.7 C 5.06 g/m*3 4.7 C 0 km/h
240 21-02-2006 15:56:44 4.8 C 5.16 g/m*3 4.8 C 0 km/h
241 21-02-2006 16:06:44 4.7 C 5 g/m*3 4.7 C 0 km/h
242 21-02-2006 16:16:45 4.6 C 4.96 g/m*3 4.6 C 0 km/h
243 21-02-2006 16:26:45 4.5 C 5 g/m*3 4.5 C 0 km/h
244 21-02-2006 16:36:44 4.5 C 5.06 g/m*3 4.5 C 0 km/h
245 21-02-2006 16:46:45 4.4 C 5.03 g/m*3 4.4 C 0 km/h
246 21-02-2006 16:56:45 4.3 C 4.93 g/m*3 4.3 C 0 km/h
247 21-02-2006 17:06:44 4.3 C 4.99 g/m*3 4.3 C 0 km/h
248 21-02-2006 17:16:45 4.2 C 4.96 g/m*3 4.2 C 0 km/h
249 21-02-2006 17:26:45 4.1 C 4.93 g/m*3 4.1 C 0 km/h
250 21-02-2006 17:36:45 4.1 C 4.99 g/m*3 4.1 C 0 km/h
Sensor: Nr:Datum:Temp:Abs-Feuchte:Windchill:Wind:
Aussen-T/F 251 21-02-2006 17:46:44 4.1 C 4.99 g/m*3 4.1 C 0 km/h
252 21-02-2006 17:56:44 4 C 4.9 g/m*3 4 C 0 km/h
253 21-02-2006 18:06:44 3.8 C 4.89 g/m*3 3.8 C 0 km/h
254 21-02-2006 18:16:45 3.7 C 4.86 g/m*3 3.7 C 0 km/h
255 21-02-2006 18:26:45 3.7 C 4.86 g/m*3 3.7 C 0 km/h
256 21-02-2006 18:36:45 3.6 C 4.83 g/m*3 3.6 C 0 km/h
257 21-02-2006 18:46:45 3.6 C 4.83 g/m*3 3.6 C 0 km/h
258 21-02-2006 18:56:45 3.6 C 4.77 g/m*3 3.6 C 0 km/h
259 21-02-2006 19:06:45 3.6 C 4.83 g/m*3 3.6 C 0 km/h
260 21-02-2006 19:16:45 3.6 C 4.77 g/m*3 3.6 C 0 km/h
261 21-02-2006 19:26:45 3.6 C 4.77 g/m*3 3.6 C 0 km/h
262 21-02-2006 19:36:44 3.6 C 4.77 g/m*3 3.6 C 0 km/h
263 21-02-2006 19:46:45 3.6 C 4.7 g/m*3 3.6 C 0 km/h
264 21-02-2006 19:56:45 3.5 C 4.73 g/m*3 3.5 C 0 km/h
265 21-02-2006 20:06:44 3.5 C 4.67 g/m*3 3.5 C 0 km/h
266 21-02-2006 20:16:45 3.5 C 4.67 g/m*3 3.5 C 0 km/h
267 21-02-2006 20:26:45 3.4 C 4.64 g/m*3 3.4 C 0 km/h
268 21-02-2006 20:36:45 3.4 C 4.64 g/m*3 3.4 C 0 km/h
269 21-02-2006 20:46:45 3.4 C 4.64 g/m*3 3.4 C 0 km/h
270 21-02-2006 20:56:45 3.4 C 4.64 g/m*3 3.4 C 0 km/h
271 21-02-2006 21:06:45 3.4 C 4.64 g/m*3 3.4 C 0 km/h
272 21-02-2006 21:16:45 3.4 C 4.58 g/m*3 3.4 C 0 km/h
273 21-02-2006 21:26:45 3.4 C 4.58 g/m*3 3.4 C 0 km/h
274 21-02-2006 21:36:44 3.4 C 4.58 g/m*3 3.4 C 0 km/h
275 21-02-2006 21:46:45 3.4 C 4.64 g/m*3 3.4 C 0 km/h
Sensor: Nr:Datum:Temp:Abs-Feuchte:Windchill:Wind:
Aussen-T/F 276 21-02-2006 21:56:45 3.3 C 4.61 g/m*3 3.3 C 0 km/h
277 21-02-2006 22:06:45 3.3 C 4.55 g/m*3 3.3 C 0 km/h
278 21-02-2006 22:16:45 3.3 C 4.55 g/m*3 3.3 C 0 km/h
279 21-02-2006 22:26:45 3.2 C 4.46 g/m*3 3.2 C 0 km/h
280 21-02-2006 22:36:45 3.2 C 4.46 g/m*3 3.2 C 0 km/h
281 21-02-2006 22:46:44 3.2 C 4.46 g/m*3 3.2 C 0 km/h
282 21-02-2006 22:56:44 3.2 C 4.52 g/m*3 3.2 C 0 km/h
283 21-02-2006 23:06:45 3.2 C 4.52 g/m*3 3.2 C 0 km/h
284 21-02-2006 23:16:45 3.1 C 4.37 g/m*3 3.1 C 0 km/h
285 21-02-2006 23:26:46 3.1 C 4.37 g/m*3 3.1 C 0 km/h
286 21-02-2006 23:36:45 3.1 C 4.37 g/m*3 3.1 C 0 km/h
287 21-02-2006 23:46:45 3 C 4.28 g/m*3 3 C 0 km/h
288 21-02-2006 23:56:45 3 C 4.28 g/m*3 3 C 0 km/h
289 22-02-2006 00:06:45 3 C 4.22 g/m*3 3 C 0 km/h
290 22-02-2006 00:16:45 2.9 C 4.25 g/m*3 2.9 C 0 km/h
291 22-02-2006 00:26:45 2.9 C 4.25 g/m*3 2.9 C 0 km/h
292 22-02-2006 00:36:46 2.9 C 4.25 g/m*3 2.9 C 0 km/h
293 22-02-2006 00:46:46 2.9 C 4.25 g/m*3 2.9 C 0 km/h
294 22-02-2006 00:56:46 2.9 C 4.25 g/m*3 2.9 C 0 km/h
295 22-02-2006 01:06:45 2.9 C 4.25 g/m*3 2.9 C 0 km/h
296 22-02-2006 01:16:46 2.9 C 4.19 g/m*3 2.9 C 0 km/h
297 22-02-2006 01:26:46 2.8 C 4.16 g/m*3 2.8 C 0 km/h
298 22-02-2006 01:36:45 2.8 C 4.16 g/m*3 2.8 C 0 km/h
299 22-02-2006 01:46:45 2.8 C 4.16 g/m*3 2.8 C 0 km/h
300 22-02-2006 01:56:45 2.8 C 4.22 g/m*3 2.8 C 0 km/h
Sensor: Nr:Datum:Temp:Abs-Feuchte:Windchill:Wind:
Aussen-T/F 301 22-02-2006 02:06:45 2.8 C 4.16 g/m*3 2.8 C 0 km/h
302 22-02-2006 02:16:46 2.7 C 4.14 g/m*3 2.7 C 0 km/h
303 22-02-2006 02:26:46 2.7 C 4.14 g/m*3 2.7 C 0 km/h
304 22-02-2006 02:36:46 2.7 C 4.14 g/m*3 2.7 C 0 km/h
305 22-02-2006 02:47:47 2.7 C 4.14 g/m*3 2.7 C 0 km/h
306 22-02-2006 02:57:47 2.6 C 4.11 g/m*3 2.6 C 0 km/h
307 22-02-2006 03:07:47 2.6 C 4.11 g/m*3 2.6 C 0 km/h
308 22-02-2006 03:17:47 2.6 C 4.11 g/m*3 2.6 C 0 km/h
309 22-02-2006 03:27:47 2.6 C 4.17 g/m*3 2.6 C 0 km/h
310 22-02-2006 03:37:47 2.6 C 4.17 g/m*3 2.6 C 0 km/h
311 22-02-2006 03:47:47 2.6 C 4.17 g/m*3 2.6 C 0 km/h
312 22-02-2006 03:57:47 2.5 C 4.08 g/m*3 2.5 C 0 km/h
313 22-02-2006 04:07:47 2.5 C 4.08 g/m*3 2.5 C 0 km/h
314 22-02-2006 04:17:47 2.5 C 4.08 g/m*3 2.5 C 0 km/h
315 22-02-2006 04:27:47 2.5 C 4.08 g/m*3 2.5 C 0 km/h
316 22-02-2006 04:37:47 2.5 C 4.08 g/m*3 2.5 C 0 km/h
317 22-02-2006 04:47:47 2.5 C 4.08 g/m*3 2.5 C 0 km/h
318 22-02-2006 04:57:47 2.5 C 4.08 g/m*3 2.5 C 0 km/h
319 22-02-2006 05:07:47 2.5 C 4.02 g/m*3 2.5 C 0 km/h
320 22-02-2006 05:17:47 2.5 C 4.08 g/m*3 2.5 C 0 km/h
321 22-02-2006 05:27:47 2.4 C 4.05 g/m*3 2.4 C 0 km/h
322 22-02-2006 05:37:47 2.4 C 4.11 g/m*3 2.4 C 0 km/h
323 22-02-2006 05:47:47 2.4 C 4.11 g/m*3 2.4 C 0 km/h
324 22-02-2006 05:57:47 2.3 C 4.14 g/m*3 2.3 C 0 km/h
325 22-02-2006 06:07:47 2.3 C 4.14 g/m*3 2.3 C 0 km/h
Sensor: Nr:Datum:Temp:Abs-Feuchte:Windchill:Wind:
Aussen-T/F 326 22-02-2006 06:17:47 2.3 C 4.14 g/m*3 2.3 C 0 km/h
327 22-02-2006 06:27:47 2.3 C 4.14 g/m*3 2.3 C 0 km/h
328 22-02-2006 06:37:48 2.3 C 4.2 g/m*3 2.3 C 0 km/h
329 22-02-2006 06:47:47 2.3 C 4.14 g/m*3 2.3 C 0 km/h
330 22-02-2006 06:57:47 2.3 C 4.2 g/m*3 2.3 C 0 km/h
331 22-02-2006 07:07:47 2.3 C 4.14 g/m*3 2.3 C 0 km/h
332 22-02-2006 07:17:47 2.4 C 4.17 g/m*3 2.4 C 0 km/h
333 22-02-2006 07:27:47 2.4 C 4.11 g/m*3 2.4 C 0 km/h
334 22-02-2006 07:37:48 2.5 C 4.14 g/m*3 2.5 C 0 km/h
335 22-02-2006 07:47:47 2.5 C 4.14 g/m*3 2.5 C 0 km/h
336 22-02-2006 07:57:47 2.5 C 4.14 g/m*3 2.5 C 0 km/h
337 22-02-2006 08:07:47 2.6 C 4.11 g/m*3 2.6 C 0 km/h
338 22-02-2006 08:17:47 2.6 C 4.05 g/m*3 2.6 C 0 km/h
339 22-02-2006 08:27:47 2.6 C 4.05 g/m*3 2.6 C 0 km/h
340 22-02-2006 08:37:48 2.7 C 4.02 g/m*3 2.7 C 0 km/h
341 22-02-2006 08:47:47 2.7 C 3.96 g/m*3 2.7 C 0 km/h
342 22-02-2006 08:57:47 2.7 C 3.9 g/m*3 2.7 C 0 km/h
343 22-02-2006 09:07:48 2.7 C 3.9 g/m*3 2.7 C 0 km/h
344 22-02-2006 09:17:48 2.7 C 3.9 g/m*3 2.7 C 0 km/h
345 22-02-2006 09:27:49 2.7 C 3.79 g/m*3 2.7 C 0 km/h
346 22-02-2006 09:37:47 2.8 C 3.81 g/m*3 2.8 C 0 km/h
347 22-02-2006 09:47:48 2.7 C 3.73 g/m*3 2.7 C 0 km/h
348 22-02-2006 09:57:49 2.7 C 3.73 g/m*3 2.7 C 0 km/h
349 22-02-2006 10:07:47 2.7 C 3.73 g/m*3 2.7 C 0 km/h
350 22-02-2006 10:17:47 2.7 C 3.73 g/m*3 2.7 C 0 km/h
Sensor: Nr:Datum:Temp:Abs-Feuchte:Windchill:Wind:
Aussen-T/F 351 22-02-2006 10:27:47 2.7 C 3.73 g/m*3 2.7 C 0 km/h
352 22-02-2006 10:37:48 2.8 C 3.7 g/m*3 2.8 C 0 km/h
353 22-02-2006 10:47:47 2.7 C 3.67 g/m*3 2.7 C 0 km/h
354 22-02-2006 10:57:47 2.7 C 3.67 g/m*3 2.7 C 0 km/h
355 22-02-2006 11:07:48 2.7 C 3.67 g/m*3 2.7 C 0 km/h
356 22-02-2006 11:17:48 2.7 C 3.67 g/m*3 2.7 C 0 km/h
357 22-02-2006 11:27:48 2.8 C 3.7 g/m*3 2.8 C 0 km/h
358 22-02-2006 11:37:48 2.8 C 3.7 g/m*3 2.8 C 0 km/h
359 22-02-2006 11:47:48 2.9 C 3.72 g/m*3 2.9 C 0 km/h
360 22-02-2006 11:57:48 2.8 C 3.64 g/m*3 2.8 C 0 km/h
361 22-02-2006 12:07:48 2.8 C 3.64 g/m*3 2.8 C 0 km/h
362 22-02-2006 12:17:48 3 C 3.63 g/m*3 3 C 0 km/h
363 22-02-2006 12:27:48 3.2 C 3.62 g/m*3 3.2 C 0 km/h
364 22-02-2006 12:37:48 3.4 C 3.6 g/m*3 3.4 C 0 km/h
365 22-02-2006 12:47:48 3.4 C 3.54 g/m*3 3.4 C 0 km/h
366 22-02-2006 12:57:48 3.5 C 3.5 g/m*3 3.5 C 0 km/h
367 22-02-2006 13:07:48 3.6 C 3.47 g/m*3 3.6 C 0 km/h
368 22-02-2006 13:17:48 3.6 C 3.47 g/m*3 3.6 C 0 km/h
369 22-02-2006 13:27:48 3.5 C 3.32 g/m*3 3.5 C 0 km/h
370 22-02-2006 13:37:48 3.7 C 3.3 g/m*3 3.7 C 0 km/h
371 22-02-2006 13:47:48 3.9 C 3.35 g/m*3 3.9 C 0 km/h
372 22-02-2006 13:57:48 3.8 C 3.32 g/m*3 3.8 C 0 km/h
373 22-02-2006 14:07:48 3.9 C 3.28 g/m*3 3.9 C 0 km/h
374 22-02-2006 14:17:48 3.9 C 3.28 g/m*3 3.9 C 0 km/h
375 22-02-2006 14:27:48 3.8 C 3.32 g/m*3 3.8 C 0 km/h
Sensor: Nr:Datum:Temp:Abs-Feuchte:Windchill:Wind:
Aussen-T/F 376 22-02-2006 14:37:48 3.5 C 3.32 g/m*3 3.5 C 0 km/h
377 22-02-2006 14:47:48 3.5 C 3.32 g/m*3 3.5 C 0 km/h
378 22-02-2006 14:57:48 3.4 C 3.24 g/m*3 3.4 C 0 km/h
379 22-02-2006 15:07:48 3.3 C 3.28 g/m*3 3.3 C 0 km/h
380 22-02-2006 15:17:49 3.3 C 3.28 g/m*3 3.3 C 0 km/h
381 22-02-2006 15:27:49 3.3 C 3.22 g/m*3 3.3 C 0 km/h
382 22-02-2006 15:37:48 3.3 C 3.22 g/m*3 3.3 C 0 km/h
383 22-02-2006 15:47:48 3.1 C 3.23 g/m*3 3.1 C 0 km/h
384 22-02-2006 15:57:48 3 C 3.21 g/m*3 3 C 0 km/h
385 22-02-2006 16:07:49 2.7 C 3.2 g/m*3 2.7 C 0 km/h
386 22-02-2006 16:17:48 2.6 C 3.24 g/m*3 2.6 C 0 km/h
387 22-02-2006 16:27:48 2.5 C 3.22 g/m*3 2.5 C 0 km/h
388 22-02-2006 16:37:48 2.5 C 3.22 g/m*3 2.5 C 0 km/h
389 22-02-2006 16:47:48 2.4 C 3.2 g/m*3 2.4 C 0 km/h
390 22-02-2006 16:57:49 2.4 C 3.2 g/m*3 2.4 C 0 km/h
391 22-02-2006 17:07:48 2.3 C 3.18 g/m*3 2.3 C 0 km/h
392 22-02-2006 17:17:48 2.3 C 3.23 g/m*3 2.3 C 0 km/h
393 22-02-2006 17:27:48 2.1 C 3.19 g/m*3 2.1 C 0 km/h
394 22-02-2006 17:37:49 2.1 C 3.24 g/m*3 2.1 C 0 km/h
395 22-02-2006 17:47:49 2.2 C 3.32 g/m*3 2.2 C 0 km/h
396 22-02-2006 17:57:49 2 C 3.28 g/m*3 2 C 0 km/h
397 22-02-2006 18:07:50 1.9 C 3.31 g/m*3 1.9 C 0 km/h
398 22-02-2006 18:17:49 1.9 C 3.31 g/m*3 1.9 C 0 km/h
399 22-02-2006 18:27:49 1.9 C 3.31 g/m*3 1.9 C 0 km/h
400 22-02-2006 18:37:49 1.8 C 3.29 g/m*3 1.8 C 0 km/h
Sensor: Nr:Datum:Temp:Abs-Feuchte:Windchill:Wind:
Aussen-T/F 401 22-02-2006 18:47:49 1.8 C 3.29 g/m*3 1.8 C 0 km/h
402 22-02-2006 18:57:49 1.8 C 3.29 g/m*3 1.8 C 0 km/h
403 22-02-2006 19:07:49 1.8 C 3.29 g/m*3 1.8 C 0 km/h
404 22-02-2006 19:17:49 1.8 C 3.29 g/m*3 1.8 C 0 km/h
405 22-02-2006 19:27:49 1.7 C 3.21 g/m*3 1.7 C 0 km/h
406 22-02-2006 19:37:48 1.6 C 3.19 g/m*3 1.6 C 0 km/h
407 22-02-2006 19:47:49 1.7 C 3.27 g/m*3 1.7 C 0 km/h
408 22-02-2006 19:57:49 1.7 C 3.21 g/m*3 1.7 C 0 km/h
409 22-02-2006 20:07:49 1.7 C 3.21 g/m*3 1.7 C 0 km/h
410 22-02-2006 20:17:49 1.7 C 3.21 g/m*3 1.7 C 0 km/h
411 22-02-2006 20:27:49 1.7 C 3.21 g/m*3 1.7 C 0 km/h
412 22-02-2006 20:37:48 1.7 C 3.27 g/m*3 1.7 C 0 km/h
413 22-02-2006 20:47:48 1.6 C 3.24 g/m*3 1.6 C 0 km/h
414 22-02-2006 20:57:48 1.6 C 3.24 g/m*3 1.6 C 0 km/h
415 22-02-2006 21:07:49 1.6 C 3.24 g/m*3 1.6 C 0 km/h
416 22-02-2006 21:17:48 1.6 C 3.19 g/m*3 1.6 C 0 km/h
417 22-02-2006 21:27:48 1.6 C 3.19 g/m*3 1.6 C 0 km/h
418 22-02-2006 21:37:48 1.5 C 3.12 g/m*3 1.5 C 0 km/h
419 22-02-2006 21:47:49 1.5 C 3.12 g/m*3 1.5 C 0 km/h
420 22-02-2006 21:57:49 1.5 C 3.12 g/m*3 1.5 C 0 km/h
421 22-02-2006 22:07:49 1.4 C 3.09 g/m*3 1.4 C 0 km/h
422 22-02-2006 22:17:49 1.4 C 3.04 g/m*3 1.4 C 0 km/h
423 22-02-2006 22:27:49 1.4 C 3.09 g/m*3 1.4 C 0 km/h
424 22-02-2006 22:37:49 1.4 C 3.09 g/m*3 1.4 C 0 km/h
425 22-02-2006 22:47:49 1.3 C 3.07 g/m*3 1.3 C 0 km/h
Sensor: Nr:Datum:Temp:Abs-Feuchte:Windchill:Wind:
Aussen-T/F 426 22-02-2006 22:57:49 1.3 C 3.07 g/m*3 1.3 C 0 km/h
427 22-02-2006 23:07:49 1.3 C 3.07 g/m*3 1.3 C 0 km/h
428 22-02-2006 23:17:49 1.3 C 3.07 g/m*3 1.3 C 0 km/h
429 22-02-2006 23:27:49 1.3 C 3.13 g/m*3 1.3 C 0 km/h
430 22-02-2006 23:37:49 1.3 C 3.13 g/m*3 1.3 C 0 km/h
431 22-02-2006 23:47:49 1.2 C 3.05 g/m*3 1.2 C 0 km/h
432 22-02-2006 23:57:49 1.2 C 3.05 g/m*3 1.2 C 0 km/h
433 23-02-2006 00:07:49 1.2 C 3.05 g/m*3 1.2 C 0 km/h
434 23-02-2006 00:17:49 1.2 C 3.1 g/m*3 1.2 C 0 km/h
435 23-02-2006 00:27:49 1.2 C 3.1 g/m*3 1.2 C 0 km/h
436 23-02-2006 00:37:50 1.1 C 3.08 g/m*3 1.1 C 0 km/h
437 23-02-2006 00:47:49 1.1 C 3.08 g/m*3 1.1 C 0 km/h
438 23-02-2006 00:57:49 1.2 C 3.16 g/m*3 1.2 C 0 km/h
439 23-02-2006 01:07:50 1.2 C 3.16 g/m*3 1.2 C 0 km/h
440 23-02-2006 01:17:50 1.1 C 3.08 g/m*3 1.1 C 0 km/h
441 23-02-2006 01:27:50 1.1 C 3.08 g/m*3 1.1 C 0 km/h
442 23-02-2006 01:37:50 1.1 C 3.03 g/m*3 1.1 C 0 km/h
443 23-02-2006 01:47:49 1 C 3.01 g/m*3 1 C 0 km/h
444 23-02-2006 01:57:49 1 C 2.96 g/m*3 1 C 0 km/h
445 23-02-2006 02:07:49 1 C 3.01 g/m*3 1 C 0 km/h
446 23-02-2006 02:17:49 1 C 2.96 g/m*3 1 C 0 km/h
447 23-02-2006 02:27:49 1 C 2.96 g/m*3 1 C 0 km/h
448 23-02-2006 02:37:49 0.9 C 2.99 g/m*3 0.9 C 0 km/h
449 23-02-2006 02:48:51 0.9 C 2.99 g/m*3 0.9 C 0 km/h
450 23-02-2006 02:58:51 0.9 C 2.99 g/m*3 0.9 C 0 km/h
Sensor: Nr:Datum:Temp:Abs-Feuchte:Windchill:Wind:
Aussen-T/F 451 23-02-2006 03:08:52 0.9 C 2.99 g/m*3 0.9 C 0 km/h
452 23-02-2006 03:18:51 0.8 C 2.97 g/m*3 0.8 C 0 km/h
453 23-02-2006 03:28:51 0.8 C 2.92 g/m*3 0.8 C 0 km/h
454 23-02-2006 03:38:51 0.7 C 2.9 g/m*3 0.7 C 0 km/h
455 23-02-2006 03:48:51 0.7 C 2.9 g/m*3 0.7 C 0 km/h
456 23-02-2006 03:58:51 0.7 C 2.9 g/m*3 0.7 C 0 km/h
457 23-02-2006 04:08:51 0.7 C 2.9 g/m*3 0.7 C 0 km/h
458 23-02-2006 04:18:51 0.7 C 2.9 g/m*3 0.7 C 0 km/h
459 23-02-2006 04:28:51 0.7 C 2.9 g/m*3 0.7 C 0 km/h
460 23-02-2006 04:38:52 0.6 C 2.88 g/m*3 0.6 C 0 km/h
461 23-02-2006 04:48:51 0.6 C 2.88 g/m*3 0.6 C 0 km/h
462 23-02-2006 04:58:51 0.6 C 2.88 g/m*3 0.6 C 0 km/h
463 23-02-2006 05:08:52 0.5 C 2.81 g/m*3 0.5 C 0 km/h
464 23-02-2006 05:18:51 0.5 C 2.81 g/m*3 0.5 C 0 km/h
465 23-02-2006 05:28:51 0.4 C 2.79 g/m*3 0.4 C 0 km/h
466 23-02-2006 05:38:51 0.4 C 2.74 g/m*3 0.4 C 0 km/h
467 23-02-2006 05:48:51 0.3 C 2.72 g/m*3 0.3 C 0 km/h
468 23-02-2006 05:58:51 0.2 C 2.7 g/m*3 0.2 C 0 km/h
469 23-02-2006 06:08:52 0.2 C 2.7 g/m*3 0.2 C 0 km/h
470 23-02-2006 06:18:51 0.1 C 2.68 g/m*3 0.1 C 0 km/h
471 23-02-2006 06:28:51 0.1 C 2.68 g/m*3 0.1 C 0 km/h
472 23-02-2006 06:38:51 0.1 C 2.68 g/m*3 0.1 C 0 km/h
473 23-02-2006 06:48:51 0.1 C 2.73 g/m*3 0.1 C 0 km/h
474 23-02-2006 06:58:51 0.1 C 2.73 g/m*3 0.1 C 0 km/h
475 23-02-2006 07:08:51 0 C 2.71 g/m*3 0 C 0 km/h
Sensor: Nr:Datum:Temp:Abs-Feuchte:Windchill:Wind:
Aussen-T/F 476 23-02-2006 07:18:51 0 C 2.76 g/m*3 0 C 0 km/h
477 23-02-2006 07:28:52 0 C 2.76 g/m*3 0 C 0 km/h
478 23-02-2006 07:38:51 0 C 2.76 g/m*3 0 C 0 km/h
479 23-02-2006 07:48:51 0 C 2.81 g/m*3 0 C 0 km/h
480 23-02-2006 07:58:51 0 C 2.81 g/m*3 0 C 0 km/h
481 23-02-2006 08:08:51 0.1 C 2.83 g/m*3 0.1 C 0 km/h
482 23-02-2006 08:18:51 0.1 C 2.78 g/m*3 0.1 C 0 km/h
483 23-02-2006 08:28:51 0.1 C 2.78 g/m*3 0.1 C 0 km/h
484 23-02-2006 08:38:52 0.1 C 2.73 g/m*3 0.1 C 0 km/h
485 23-02-2006 08:48:51 0.1 C 2.73 g/m*3 0.1 C 0 km/h
486 23-02-2006 08:58:51 0.1 C 2.73 g/m*3 0.1 C 0 km/h
487 23-02-2006 09:08:52 0.2 C 2.75 g/m*3 0.2 C 0 km/h
488 23-02-2006 09:18:52 0.1 C 2.73 g/m*3 0.1 C 0 km/h
489 23-02-2006 09:28:52 0.2 C 2.75 g/m*3 0.2 C 0 km/h
490 23-02-2006 09:38:51 0.4 C 2.79 g/m*3 0.4 C 0 km/h
491 23-02-2006 09:48:52 0.6 C 2.83 g/m*3 0.6 C 0 km/h
492 23-02-2006 09:58:52 0.8 C 2.87 g/m*3 0.8 C 0 km/h
493 23-02-2006 10:08:51 1 C 2.8 g/m*3 1 C 0 km/h
494 23-02-2006 10:18:51 1.1 C 2.82 g/m*3 1.1 C 0 km/h
495 23-02-2006 10:28:51 1.1 C 2.77 g/m*3 1.1 C 0 km/h
496 23-02-2006 10:38:52 1.1 C 2.77 g/m*3 1.1 C 0 km/h
497 23-02-2006 10:48:51 1.2 C 2.79 g/m*3 1.2 C 0 km/h
498 23-02-2006 10:58:51 1.3 C 2.81 g/m*3 1.3 C 0 km/h
499 23-02-2006 11:08:52 1.4 C 2.88 g/m*3 1.4 C 0 km/h
500 23-02-2006 11:18:52 1.5 C 2.85 g/m*3 1.5 C 0 km/h
Sensor: Nr:Datum:Temp:Abs-Feuchte:Windchill:Wind:
Aussen-T/F 501 23-02-2006 11:28:52 1.7 C 2.83 g/m*3 1.7 C 0 km/h
502 23-02-2006 11:38:52 1.9 C 2.87 g/m*3 1.9 C 0 km/h
503 23-02-2006 11:48:52 1.8 C 2.8 g/m*3 1.8 C 0 km/h
504 23-02-2006 11:58:52 2 C 2.78 g/m*3 2 C 0 km/h
505 23-02-2006 12:08:52 2.6 C 2.84 g/m*3 2.6 C 0 km/h
506 23-02-2006 12:18:51 2.9 C 2.78 g/m*3 2.9 C 0 km/h
507 23-02-2006 12:28:51 3.2 C 2.71 g/m*3 3.2 C 0 km/h
508 23-02-2006 12:38:52 3.5 C 2.58 g/m*3 3.5 C 0 km/h
509 23-02-2006 12:48:51 3.6 C 2.6 g/m*3 3.6 C 0 km/h
510 23-02-2006 12:58:51 3.7 C 2.62 g/m*3 3.7 C 0 km/h
511 23-02-2006 13:08:52 3.8 C 2.63 g/m*3 3.8 C 0 km/h
512 23-02-2006 13:18:52 4 C 2.54 g/m*3 4 C 0 km/h
513 23-02-2006 13:28:52 3.8 C 2.57 g/m*3 3.8 C 0 km/h
514 23-02-2006 13:38:52 3.7 C 2.55 g/m*3 3.7 C 0 km/h
515 23-02-2006 13:48:52 3.5 C 2.46 g/m*3 3.5 C 0 km/h
516 23-02-2006 13:58:52 3.4 C 2.5 g/m*3 3.4 C 0 km/h
517 23-02-2006 14:08:52 3.5 C 2.58 g/m*3 3.5 C 0 km/h
518 23-02-2006 14:18:52 3.4 C 2.5 g/m*3 3.4 C 0 km/h
519 23-02-2006 14:28:52 3.4 C 2.44 g/m*3 3.4 C 0 km/h
520 23-02-2006 14:38:53 3.5 C 2.52 g/m*3 3.5 C 0 km/h
521 23-02-2006 14:48:52 3.6 C 2.48 g/m*3 3.6 C 0 km/h
522 23-02-2006 14:58:52 3.7 C 2.49 g/m*3 3.7 C 0 km/h
523 23-02-2006 15:08:53 3.6 C 2.48 g/m*3 3.6 C 0 km/h
524 23-02-2006 15:18:52 3.4 C 2.44 g/m*3 3.4 C 0 km/h
525 23-02-2006 15:28:52 3.2 C 2.47 g/m*3 3.2 C 0 km/h
Sensor: Nr:Datum:Temp:Abs-Feuchte:Windchill:Wind:
Aussen-T/F 526 23-02-2006 15:38:52 3.2 C 2.47 g/m*3 3.2 C 0 km/h
527 23-02-2006 15:48:52 3 C 2.44 g/m*3 3 C 0 km/h
528 23-02-2006 15:58:52 3 C 2.5 g/m*3 3 C 0 km/h
529 23-02-2006 16:08:52 2.8 C 2.46 g/m*3 2.8 C 0 km/h
530 23-02-2006 16:18:52 2.7 C 2.51 g/m*3 2.7 C 0 km/h
531 23-02-2006 16:28:52 2.5 C 2.41 g/m*3 2.5 C 0 km/h
532 23-02-2006 16:38:52 2.4 C 2.46 g/m*3 2.4 C 0 km/h
533 23-02-2006 16:48:52 2.3 C 2.44 g/m*3 2.3 C 0 km/h
534 23-02-2006 16:58:52 2.3 C 2.5 g/m*3 2.3 C 0 km/h
535 23-02-2006 17:08:53 2.3 C 2.5 g/m*3 2.3 C 0 km/h
536 23-02-2006 17:18:53 2.2 C 2.48 g/m*3 2.2 C 0 km/h
537 23-02-2006 17:28:53 2.2 C 2.53 g/m*3 2.2 C 0 km/h
538 23-02-2006 17:38:54 2.2 C 2.53 g/m*3 2.2 C 0 km/h
539 23-02-2006 17:48:52 2 C 2.5 g/m*3 2 C 0 km/h
540 23-02-2006 17:58:52 1.9 C 2.59 g/m*3 1.9 C 0 km/h
541 23-02-2006 18:08:52 1.8 C 2.58 g/m*3 1.8 C 0 km/h
542 23-02-2006 18:18:53 1.7 C 2.56 g/m*3 1.7 C 0 km/h
543 23-02-2006 18:28:53 1.6 C 2.54 g/m*3 1.6 C 0 km/h
544 23-02-2006 18:38:53 1.5 C 2.52 g/m*3 1.5 C 0 km/h
545 23-02-2006 18:48:53 1.5 C 2.58 g/m*3 1.5 C 0 km/h
546 23-02-2006 18:58:53 1.4 C 2.56 g/m*3 1.4 C 0 km/h
547 23-02-2006 19:08:53 1.3 C 2.6 g/m*3 1.3 C 0 km/h
548 23-02-2006 19:18:52 1.3 C 2.6 g/m*3 1.3 C 0 km/h
549 23-02-2006 19:28:52 1.3 C 2.54 g/m*3 1.3 C 0 km/h
550 23-02-2006 19:38:52 1.3 C 2.49 g/m*3 1.3 C 0 km/h
Sensor: Nr:Datum:Temp:Abs-Feuchte:Windchill:Wind:
Aussen-T/F 551 23-02-2006 19:48:53 1.3 C 2.54 g/m*3 1.3 C 0 km/h
552 23-02-2006 19:58:53 1.2 C 2.58 g/m*3 1.2 C 0 km/h
553 23-02-2006 20:08:52 1.2 C 2.58 g/m*3 1.2 C 0 km/h
554 23-02-2006 20:18:52 1.2 C 2.58 g/m*3 1.2 C 0 km/h
555 23-02-2006 20:28:52 1.1 C 2.51 g/m*3 1.1 C 0 km/h
556 23-02-2006 20:38:54 1.1 C 2.51 g/m*3 1.1 C 0 km/h
557 23-02-2006 20:48:53 1 C 2.44 g/m*3 1 C 0 km/h
558 23-02-2006 20:58:53 1 C 2.44 g/m*3 1 C 0 km/h
559 23-02-2006 21:08:53 1 C 2.44 g/m*3 1 C 0 km/h
560 23-02-2006 21:18:53 0.9 C 2.47 g/m*3 0.9 C 0 km/h
561 23-02-2006 21:28:53 0.9 C 2.47 g/m*3 0.9 C 0 km/h
562 23-02-2006 21:38:53 0.8 C 2.46 g/m*3 0.8 C 0 km/h
563 23-02-2006 21:48:53 0.8 C 2.51 g/m*3 0.8 C 0 km/h
564 23-02-2006 21:58:53 0.8 C 2.56 g/m*3 0.8 C 0 km/h
565 23-02-2006 22:08:53 0.7 C 2.54 g/m*3 0.7 C 0 km/h
566 23-02-2006 22:18:53 0.7 C 2.54 g/m*3 0.7 C 0 km/h
567 23-02-2006 22:28:53 0.7 C 2.59 g/m*3 0.7 C 0 km/h
568 23-02-2006 22:38:53 0.7 C 2.64 g/m*3 0.7 C 0 km/h
569 23-02-2006 22:48:53 0.6 C 2.63 g/m*3 0.6 C 0 km/h
570 23-02-2006 22:58:53 0.6 C 2.63 g/m*3 0.6 C 0 km/h
571 23-02-2006 23:08:53 0.6 C 2.68 g/m*3 0.6 C 0 km/h
572 23-02-2006 23:18:53 0.6 C 2.73 g/m*3 0.6 C 0 km/h
573 23-02-2006 23:28:53 0.5 C 2.66 g/m*3 0.5 C 0 km/h
574 23-02-2006 23:38:53 0.5 C 2.66 g/m*3 0.5 C 0 km/h
575 23-02-2006 23:48:53 0.5 C 2.61 g/m*3 0.5 C 0 km/h
Sensor: Nr:Datum:Temp:Abs-Feuchte:Windchill:Wind:
Aussen-T/F 576 23-02-2006 23:58:53 0.5 C 2.66 g/m*3 0.5 C 0 km/h
577 24-02-2006 00:08:53 0.4 C 2.59 g/m*3 0.4 C 0 km/h
578 24-02-2006 00:18:53 0.4 C 2.64 g/m*3 0.4 C 0 km/h
579 24-02-2006 00:28:53 0.4 C 2.64 g/m*3 0.4 C 0 km/h
580 24-02-2006 00:38:54 0.4 C 2.69 g/m*3 0.4 C 0 km/h
581 24-02-2006 00:48:53 0.3 C 2.67 g/m*3 0.3 C 0 km/h
582 24-02-2006 00:58:53 0.3 C 2.67 g/m*3 0.3 C 0 km/h
583 24-02-2006 01:08:53 0.3 C 2.67 g/m*3 0.3 C 0 km/h
584 24-02-2006 01:18:53 0.3 C 2.67 g/m*3 0.3 C 0 km/h
585 24-02-2006 01:28:53 0.3 C 2.67 g/m*3 0.3 C 0 km/h
586 24-02-2006 01:38:53 0.2 C 2.65 g/m*3 0.2 C 0 km/h
587 24-02-2006 01:48:54 0.2 C 2.65 g/m*3 0.2 C 0 km/h
588 24-02-2006 01:58:54 0.2 C 2.7 g/m*3 0.2 C 0 km/h
589 24-02-2006 02:08:54 0.2 C 2.7 g/m*3 0.2 C 0 km/h
590 24-02-2006 02:18:53 0.2 C 2.7 g/m*3 0.2 C 0 km/h
591 24-02-2006 02:28:53 0.2 C 2.7 g/m*3 0.2 C 0 km/h
592 24-02-2006 02:38:53 0.1 C 2.68 g/m*3 0.1 C 0 km/h
593 24-02-2006 02:49:55 0.1 C 2.68 g/m*3 0.1 C 0 km/h
594 24-02-2006 02:59:55 0.1 C 2.73 g/m*3 0.1 C 0 km/h
595 24-02-2006 03:09:55 0.1 C 2.73 g/m*3 0.1 C 0 km/h
596 24-02-2006 03:19:55 0.1 C 2.73 g/m*3 0.1 C 0 km/h
597 24-02-2006 03:29:55 0.1 C 2.78 g/m*3 0.1 C 0 km/h
598 24-02-2006 03:39:55 0 C 2.76 g/m*3 0 C 0 km/h
599 24-02-2006 03:49:55 0 C 2.76 g/m*3 0 C 0 km/h
600 24-02-2006 03:59:55 0 C 2.81 g/m*3 0 C 0 km/h
Sensor: Nr:Datum:Temp:Abs-Feuchte:Windchill:Wind:
Aussen-T/F 601 24-02-2006 04:09:55 0 C 2.81 g/m*3 0 C 0 km/h
602 24-02-2006 04:19:56 0 C 2.86 g/m*3 0 C 0 km/h
603 24-02-2006 04:29:56 0 C 2.86 g/m*3 0 C 0 km/h
604 24-02-2006 04:39:55 0 C 2.86 g/m*3 0 C 0 km/h
605 24-02-2006 04:49:56 0 C 2.91 g/m*3 0 C 0 km/h
606 24-02-2006 04:59:56 0 C 2.91 g/m*3 0 C 0 km/h
607 24-02-2006 05:09:55 0 C 2.91 g/m*3 0 C 0 km/h
608 24-02-2006 05:19:55 -0.1 C 2.89 g/m*3 -0.1 C 0 km/h
609 24-02-2006 05:29:55 -0.1 C 2.89 g/m*3 -0.1 C 0 km/h
610 24-02-2006 05:39:55 0 C 2.96 g/m*3 0 C 0 km/h
611 24-02-2006 05:49:55 0 C 2.96 g/m*3 0 C 0 km/h
612 24-02-2006 05:59:55 0 C 3 g/m*3 0 C 0 km/h
613 24-02-2006 06:09:55 0 C 3 g/m*3 0 C 0 km/h
614 24-02-2006 06:19:55 0 C 3 g/m*3 0 C 0 km/h
615 24-02-2006 06:29:55 -0.1 C 2.98 g/m*3 -0.1 C 0 km/h
616 24-02-2006 06:39:55 -0.1 C 3.03 g/m*3 -0.1 C 0 km/h
617 24-02-2006 06:49:55 0 C 3.05 g/m*3 0 C 0 km/h
618 24-02-2006 06:59:55 0 C 3.05 g/m*3 0 C 0 km/h
619 24-02-2006 07:09:55 0 C 3.05 g/m*3 0 C 0 km/h
620 24-02-2006 07:19:55 0 C 3.05 g/m*3 0 C 0 km/h
621 24-02-2006 07:29:56 0 C 3.05 g/m*3 0 C 0 km/h
622 24-02-2006 07:39:55 -0.1 C 3.03 g/m*3 -0.1 C 0 km/h
623 24-02-2006 07:49:56 -0.1 C 3.03 g/m*3 -0.1 C 0 km/h
624 24-02-2006 07:59:56 -0.2 C 3.01 g/m*3 -0.2 C 0 km/h
625 24-02-2006 08:09:55 -0.4 C 3.02 g/m*3 -0.4 C 0 km/h
Sensor: Nr:Datum:Temp:Abs-Feuchte:Windchill:Wind:
Aussen-T/F 626 24-02-2006 08:19:55 -0.5 C 3.04 g/m*3 -0.5 C 0 km/h
627 24-02-2006 08:29:55 -0.4 C 3.06 g/m*3 -0.4 C 0 km/h
628 24-02-2006 08:39:55 -0.3 C 3.08 g/m*3 -0.3 C 0 km/h
629 24-02-2006 08:49:55 -0.2 C 3.06 g/m*3 -0.2 C 0 km/h
630 24-02-2006 08:59:55 0 C 3.05 g/m*3 0 C 0 km/h
631 24-02-2006 09:09:55 0.1 C 3.07 g/m*3 0.1 C 0 km/h
632 24-02-2006 09:19:56 0.3 C 3.07 g/m*3 0.3 C 0 km/h
633 24-02-2006 09:29:56 0.5 C 3.06 g/m*3 0.5 C 0 km/h
634 24-02-2006 09:39:56 0.7 C 3.1 g/m*3 0.7 C 0 km/h
635 24-02-2006 09:49:56 1.1 C 3.03 g/m*3 1.1 C 0 km/h
636 24-02-2006 09:59:56 1.3 C 3.02 g/m*3 1.3 C 0 km/h
637 24-02-2006 10:09:56 1.6 C 3.03 g/m*3 1.6 C 0 km/h
638 24-02-2006 10:19:55 2.1 C 3.02 g/m*3 2.1 C 0 km/h
639 24-02-2006 10:29:55 2.2 C 2.93 g/m*3 2.2 C 0 km/h
640 24-02-2006 10:39:55 2.5 C 2.93 g/m*3 2.5 C 0 km/h
641 24-02-2006 10:49:55 3 C 2.85 g/m*3 3 C 0 km/h
642 24-02-2006 10:59:55 3 C 2.79 g/m*3 3 C 0 km/h
643 24-02-2006 11:09:55 2.9 C 2.83 g/m*3 2.9 C 0 km/h
644 24-02-2006 11:19:56 3 C 2.79 g/m*3 3 C 0 km/h
645 24-02-2006 11:29:56 3.4 C 2.81 g/m*3 3.4 C 0 km/h
646 24-02-2006 11:39:56 3.5 C 2.77 g/m*3 3.5 C 0 km/h
647 24-02-2006 11:49:56 3.7 C 2.8 g/m*3 3.7 C 0 km/h
648 24-02-2006 11:59:56 3.9 C 2.78 g/m*3 3.9 C 0 km/h
649 24-02-2006 12:09:56 4.2 C 2.77 g/m*3 4.2 C 0 km/h
650 24-02-2006 12:19:56 4.5 C 2.76 g/m*3 4.5 C 0 km/h
Sensor: Nr:Datum:Temp:Abs-Feuchte:Windchill:Wind:
Aussen-T/F 651 24-02-2006 12:29:56 4.9 C 2.84 g/m*3 4.9 C 0 km/h
652 24-02-2006 12:39:55 5.1 C 2.74 g/m*3 5.1 C 0 km/h
653 24-02-2006 12:49:56 5.1 C 2.74 g/m*3 5.1 C 0 km/h
654 24-02-2006 12:59:56 5.4 C 2.79 g/m*3 5.4 C 0 km/h
655 24-02-2006 13:09:55 5.5 C 2.74 g/m*3 5.5 C 0 km/h
656 24-02-2006 13:19:56 5.3 C 2.63 g/m*3 5.3 C 0 km/h
657 24-02-2006 13:29:56 5.3 C 2.7 g/m*3 5.3 C 0 km/h
658 24-02-2006 13:39:56 5.6 C 2.76 g/m*3 5.6 C 0 km/h
659 24-02-2006 13:49:56 6.3 C 2.74 g/m*3 6.3 C 0 km/h
660 24-02-2006 13:59:56 6.8 C 2.75 g/m*3 6.8 C 0 km/h
661 24-02-2006 14:09:56 6.8 C 2.68 g/m*3 6.8 C 0 km/h
662 24-02-2006 14:19:57 6.9 C 2.69 g/m*3 6.9 C 0 km/h
663 24-02-2006 14:29:57 6.9 C 2.69 g/m*3 6.9 C 0 km/h
664 24-02-2006 14:39:02 7 C 2.63 g/m*3 7 C 0 km/h
665 24-02-2006 14:49:01 6.8 C 2.68 g/m*3 6.8 C 0 km/h
666 24-02-2006 14:59:01 6.7 C 2.66 g/m*3 6.7 C 0 km/h
667 24-02-2006 15:09:02 6.6 C 2.72 g/m*3 6.6 C 0 km/h
668 24-02-2006 15:19:01 6.4 C 2.68 g/m*3 6.4 C 0 km/h
669 24-02-2006 15:29:01 6.3 C 2.66 g/m*3 6.3 C 0 km/h
670 24-02-2006 15:39:01 6.3 C 2.74 g/m*3 6.3 C 0 km/h
671 24-02-2006 15:49:02 6.1 C 2.7 g/m*3 6.1 C 0 km/h
672 24-02-2006 15:59:02 6 C 2.76 g/m*3 6 C 0 km/h
673 24-02-2006 16:09:02 5.9 C 2.88 g/m*3 5.9 C 0 km/h
674 24-02-2006 16:19:01 5.8 C 2.87 g/m*3 5.8 C 0 km/h
675 24-02-2006 16:29:01 5.6 C 2.83 g/m*3 5.6 C 0 km/h
Sensor: Nr:Datum:Temp:Abs-Feuchte:Windchill:Wind:
Aussen-T/F 676 24-02-2006 16:39:02 5.5 C 2.88 g/m*3 5.5 C 0 km/h
677 24-02-2006 16:49:01 5.4 C 2.86 g/m*3 5.4 C 0 km/h
678 24-02-2006 16:59:01 5.2 C 2.89 g/m*3 5.2 C 0 km/h
679 24-02-2006 17:09:02 5 C 2.85 g/m*3 5 C 0 km/h
680 24-02-2006 17:19:02 4.9 C 2.97 g/m*3 4.9 C 0 km/h
681 24-02-2006 17:29:02 4.7 C 3 g/m*3 4.7 C 0 km/h
682 24-02-2006 17:39:02 4.3 C 2.85 g/m*3 4.3 C 0 km/h
683 24-02-2006 17:49:02 4 C 2.86 g/m*3 4 C 0 km/h
684 24-02-2006 17:59:02 3.6 C 2.85 g/m*3 3.6 C 0 km/h
685 24-02-2006 18:09:02 3.4 C 2.87 g/m*3 3.4 C 0 km/h
686 24-02-2006 18:19:02 3.2 C 2.83 g/m*3 3.2 C 0 km/h
687 24-02-2006 18:29:02 2.9 C 2.89 g/m*3 2.9 C 0 km/h
688 24-02-2006 18:39:02 2.8 C 2.93 g/m*3 2.8 C 0 km/h
689 24-02-2006 18:49:02 2.6 C 2.89 g/m*3 2.6 C 0 km/h
690 24-02-2006 18:59:02 2.4 C 2.8 g/m*3 2.4 C 0 km/h
691 24-02-2006 19:09:02 2.3 C 2.78 g/m*3 2.3 C 0 km/h
692 24-02-2006 19:19:02 2.1 C 2.8 g/m*3 2.1 C 0 km/h
693 24-02-2006 19:29:02 2 C 2.78 g/m*3 2 C 0 km/h
694 24-02-2006 19:39:03 1.9 C 2.81 g/m*3 1.9 C 0 km/h
695 24-02-2006 19:49:02 1.7 C 2.83 g/m*3 1.7 C 0 km/h
696 24-02-2006 19:59:02 1.7 C 2.89 g/m*3 1.7 C 0 km/h
697 24-02-2006 20:09:02 1.6 C 2.87 g/m*3 1.6 C 0 km/h
698 24-02-2006 20:19:02 1.6 C 2.87 g/m*3 1.6 C 0 km/h
699 24-02-2006 20:29:03 1.6 C 2.87 g/m*3 1.6 C 0 km/h
700 24-02-2006 20:39:02 1.6 C 2.87 g/m*3 1.6 C 0 km/h
Sensor: Nr:Datum:Temp:Abs-Feuchte:Windchill:Wind:
Aussen-T/F 701 24-02-2006 20:49:02 1.6 C 2.87 g/m*3 1.6 C 0 km/h
702 24-02-2006 20:59:02 1.5 C 2.85 g/m*3 1.5 C 0 km/h
703 24-02-2006 21:09:03 1.4 C 2.83 g/m*3 1.4 C 0 km/h
704 24-02-2006 21:19:02 1.3 C 2.81 g/m*3 1.3 C 0 km/h
705 24-02-2006 21:29:02 1.2 C 2.84 g/m*3 1.2 C 0 km/h
706 24-02-2006 21:39:02 1.2 C 2.84 g/m*3 1.2 C 0 km/h
707 24-02-2006 21:49:03 1.1 C 2.82 g/m*3 1.1 C 0 km/h
708 24-02-2006 21:59:03 1 C 2.8 g/m*3 1 C 0 km/h
709 24-02-2006 22:09:03 0.9 C 2.84 g/m*3 0.9 C 0 km/h
710 24-02-2006 22:19:02 0.7 C 2.8 g/m*3 0.7 C 0 km/h
711 24-02-2006 22:29:03 0.7 C 2.8 g/m*3 0.7 C 0 km/h
712 24-02-2006 22:39:02 0.5 C 2.76 g/m*3 0.5 C 0 km/h
713 24-02-2006 22:49:02 0.5 C 2.81 g/m*3 0.5 C 0 km/h
714 24-02-2006 22:59:02 0.5 C 2.76 g/m*3 0.5 C 0 km/h
715 24-02-2006 23:09:02 0.4 C 2.74 g/m*3 0.4 C 0 km/h
716 24-02-2006 23:19:02 0.5 C 2.76 g/m*3 0.5 C 0 km/h
717 24-02-2006 23:29:02 0.6 C 2.73 g/m*3 0.6 C 0 km/h
718 24-02-2006 23:39:03 0.7 C 2.64 g/m*3 0.7 C 0 km/h
719 24-02-2006 23:49:03 0.6 C 2.68 g/m*3 0.6 C 0 km/h
720 24-02-2006 23:59:03 0.5 C 2.66 g/m*3 0.5 C 0 km/h
721 25-02-2006 00:09:03 0.6 C 2.63 g/m*3 0.6 C 0 km/h
722 25-02-2006 00:19:03 0.6 C 2.68 g/m*3 0.6 C 0 km/h
723 25-02-2006 00:29:03 0.5 C 2.61 g/m*3 0.5 C 0 km/h
724 25-02-2006 00:39:02 0.4 C 2.59 g/m*3 0.4 C 0 km/h
725 25-02-2006 00:49:03 0.3 C 2.57 g/m*3 0.3 C 0 km/h
Sensor: Nr:Datum:Temp:Abs-Feuchte:Windchill:Wind:
Aussen-T/F 726 25-02-2006 00:59:03 0.2 C 2.55 g/m*3 0.2 C 0 km/h
727 25-02-2006 01:09:02 0.2 C 2.55 g/m*3 0.2 C 0 km/h
728 25-02-2006 01:19:03 0.1 C 2.59 g/m*3 0.1 C 0 km/h
729 25-02-2006 01:29:03 0.1 C 2.59 g/m*3 0.1 C 0 km/h
730 25-02-2006 01:39:03 0.1 C 2.54 g/m*3 0.1 C 0 km/h
731 25-02-2006 01:49:03 -0.1 C 2.5 g/m*3 -0.1 C 0 km/h
732 25-02-2006 01:59:03 -0.2 C 2.53 g/m*3 -0.2 C 0 km/h
733 25-02-2006 02:09:03 -0.3 C 2.52 g/m*3 -0.3 C 0 km/h
734 25-02-2006 02:19:03 -0.3 C 2.52 g/m*3 -0.3 C 0 km/h
735 25-02-2006 02:29:03 -0.4 C 2.5 g/m*3 -0.4 C 0 km/h
736 25-02-2006 02:39:03 -0.4 C 2.5 g/m*3 -0.4 C 0 km/h
737 25-02-2006 02:50:04 -0.4 C 2.5 g/m*3 -0.4 C 0 km/h
738 25-02-2006 03:00:04 -0.5 C 2.48 g/m*3 -0.5 C 0 km/h
739 25-02-2006 03:10:05 -0.7 C 2.49 g/m*3 -0.7 C 0 km/h
740 25-02-2006 03:20:05 -0.9 C 2.46 g/m*3 -0.9 C 0 km/h
741 25-02-2006 03:30:05 -1.1 C 2.47 g/m*3 -1.1 C 0 km/h
742 25-02-2006 03:40:04 -1.3 C 2.43 g/m*3 -1.3 C 0 km/h
743 25-02-2006 03:50:04 -1.4 C 2.46 g/m*3 -1.4 C 0 km/h
744 25-02-2006 04:00:04 -1.6 C 2.43 g/m*3 -1.6 C 0 km/h
745 25-02-2006 04:10:04 -1.4 C 2.46 g/m*3 -1.4 C 0 km/h
746 25-02-2006 04:20:04 -1.3 C 2.43 g/m*3 -1.3 C 0 km/h
747 25-02-2006 04:30:04 -1.3 C 2.43 g/m*3 -1.3 C 0 km/h
748 25-02-2006 04:40:04 -1.6 C 2.43 g/m*3 -1.6 C 0 km/h
749 25-02-2006 04:50:04 -1.8 C 2.44 g/m*3 -1.8 C 0 km/h
750 25-02-2006 05:00:04 -2 C 2.49 g/m*3 -2 C 0 km/h
Sensor: Nr:Datum:Temp:Abs-Feuchte:Windchill:Wind:
Aussen-T/F 751 25-02-2006 05:10:04 -1.9 C 2.46 g/m*3 -1.9 C 0 km/h
752 25-02-2006 05:20:04 -1.8 C 2.48 g/m*3 -1.8 C 0 km/h
753 25-02-2006 05:30:04 -2.1 C 2.43 g/m*3 -2.1 C 0 km/h
754 25-02-2006 05:40:04 -2 C 2.49 g/m*3 -2 C 0 km/h
755 25-02-2006 05:50:04 -2 C 2.49 g/m*3 -2 C 0 km/h
756 25-02-2006 06:00:04 -2.2 C 2.49 g/m*3 -2.2 C 0 km/h
757 25-02-2006 06:10:04 -2.1 C 2.51 g/m*3 -2.1 C 0 km/h
758 25-02-2006 06:20:04 -2 C 2.49 g/m*3 -2 C 0 km/h
759 25-02-2006 06:30:04 -2.1 C 2.51 g/m*3 -2.1 C 0 km/h
760 25-02-2006 06:40:05 -2 C 2.49 g/m*3 -2 C 0 km/h
761 25-02-2006 06:50:04 -2.1 C 2.47 g/m*3 -2.1 C 0 km/h
762 25-02-2006 07:00:04 -2.1 C 2.47 g/m*3 -2.1 C 0 km/h
763 25-02-2006 07:10:05 -2.3 C 2.48 g/m*3 -2.3 C 0 km/h
764 25-02-2006 07:20:05 -2.4 C 2.5 g/m*3 -2.4 C 0 km/h
765 25-02-2006 07:30:05 -2.5 C 2.52 g/m*3 -2.5 C 0 km/h
766 25-02-2006 07:40:04 -2.4 C 2.5 g/m*3 -2.4 C 0 km/h
767 25-02-2006 07:50:05 -2.3 C 2.52 g/m*3 -2.3 C 0 km/h
768 25-02-2006 08:00:05 -2.3 C 2.48 g/m*3 -2.3 C 0 km/h
769 25-02-2006 08:10:04 -2.3 C 2.48 g/m*3 -2.3 C 0 km/h
770 25-02-2006 08:20:04 -2.1 C 2.51 g/m*3 -2.1 C 0 km/h
771 25-02-2006 08:30:04 -1.9 C 2.5 g/m*3 -1.9 C 0 km/h
772 25-02-2006 08:40:05 -1.7 C 2.5 g/m*3 -1.7 C 0 km/h
773 25-02-2006 08:50:05 -1.5 C 2.49 g/m*3 -1.5 C 0 km/h
774 25-02-2006 09:00:06 -1.5 C 2.49 g/m*3 -1.5 C 0 km/h
775 25-02-2006 09:10:04 -1.4 C 2.46 g/m*3 -1.4 C 0 km/h
Sensor: Nr:Datum:Temp:Abs-Feuchte:Windchill:Wind:
Aussen-T/F 776 25-02-2006 09:20:04 -1.2 C 2.5 g/m*3 -1.2 C 0 km/h
777 25-02-2006 09:30:04 -1 C 2.49 g/m*3 -1 C 0 km/h
778 25-02-2006 09:40:05 -0.9 C 2.46 g/m*3 -0.9 C 0 km/h
779 25-02-2006 09:50:16 -0.8 C 2.48 g/m*3 -0.8 C 0 km/h
780 25-02-2006 10:00:16 -0.7 C 2.49 g/m*3 -0.7 C 0 km/h
781 25-02-2006 10:10:05 -0.4 C 2.54 g/m*3 -0.4 C 0 km/h
782 25-02-2006 10:20:04 0 C 2.57 g/m*3 0 C 0 km/h
783 25-02-2006 10:30:04 0.2 C 2.51 g/m*3 0.2 C 0 km/h
784 25-02-2006 10:40:06 0.3 C 2.47 g/m*3 0.3 C 0 km/h
785 25-02-2006 10:50:05 0.6 C 2.58 g/m*3 0.6 C 0 km/h
786 25-02-2006 11:00:05 1.1 C 2.46 g/m*3 1.1 C 0 km/h
787 25-02-2006 11:10:04 1.3 C 2.49 g/m*3 1.3 C 0 km/h
788 25-02-2006 11:20:05 1.5 C 2.47 g/m*3 1.5 C 0 km/h
789 25-02-2006 11:30:05 1.7 C 2.5 g/m*3 1.7 C 0 km/h
790 25-02-2006 11:40:04 1.9 C 2.48 g/m*3 1.9 C 0 km/h
791 25-02-2006 11:50:05 2.1 C 2.41 g/m*3 2.1 C 0 km/h
792 25-02-2006 12:00:05 2.2 C 2.42 g/m*3 2.2 C 0 km/h
793 25-02-2006 12:10:05 2.3 C 2.38 g/m*3 2.3 C 0 km/h
794 25-02-2006 12:20:05 2.5 C 2.36 g/m*3 2.5 C 0 km/h
795 25-02-2006 12:30:05 2.7 C 2.39 g/m*3 2.7 C 0 km/h
796 25-02-2006 12:40:05 3.4 C 2.44 g/m*3 3.4 C 0 km/h
797 25-02-2006 12:50:05 3.5 C 2.34 g/m*3 3.5 C 0 km/h
798 25-02-2006 13:00:05 3.7 C 2.43 g/m*3 3.7 C 0 km/h
799 25-02-2006 13:10:05 4.2 C 2.32 g/m*3 4.2 C 0 km/h
800 25-02-2006 13:20:05 4.4 C 2.35 g/m*3 4.4 C 0 km/h
Sensor: Nr:Datum:Temp:Abs-Feuchte:Windchill:Wind:
Aussen-T/F 801 25-02-2006 13:30:05 4.5 C 2.3 g/m*3 4.5 C 0 km/h
802 25-02-2006 13:40:05 4.8 C 2.35 g/m*3 4.8 C 0 km/h
803 25-02-2006 13:50:06 5.3 C 2.43 g/m*3 5.3 C 0 km/h
804 25-02-2006 14:00:06 5.8 C 2.29 g/m*3 5.8 C 0 km/h
805 25-02-2006 14:10:05 5.9 C 2.31 g/m*3 5.9 C 0 km/h
806 25-02-2006 14:20:05 5.8 C 2.22 g/m*3 5.8 C 0 km/h
807 25-02-2006 14:30:05 5.8 C 2.22 g/m*3 5.8 C 0 km/h
808 25-02-2006 14:40:05 5.3 C 2.15 g/m*3 5.3 C 0 km/h
809 25-02-2006 14:50:06 5.4 C 2.23 g/m*3 5.4 C 0 km/h
810 25-02-2006 15:00:06 5.4 C 2.23 g/m*3 5.4 C 0 km/h
811 25-02-2006 15:10:05 5.3 C 2.29 g/m*3 5.3 C 0 km/h
812 25-02-2006 15:20:05 5.3 C 2.29 g/m*3 5.3 C 0 km/h
813 25-02-2006 15:30:05 5.2 C 2.34 g/m*3 5.2 C 0 km/h
814 25-02-2006 15:40:05 5.1 C 2.33 g/m*3 5.1 C 0 km/h
815 25-02-2006 15:50:05 5 C 2.31 g/m*3 5 C 0 km/h
816 25-02-2006 16:00:05 4.6 C 2.32 g/m*3 4.6 C 0 km/h
817 25-02-2006 16:10:05 4.5 C 2.37 g/m*3 4.5 C 0 km/h
818 25-02-2006 16:20:06 4.6 C 2.38 g/m*3 4.6 C 0 km/h
819 25-02-2006 16:30:06 4.7 C 2.33 g/m*3 4.7 C 0 km/h
820 25-02-2006 16:40:06 4.6 C 2.32 g/m*3 4.6 C 0 km/h
821 25-02-2006 16:50:06 4.6 C 2.32 g/m*3 4.6 C 0 km/h
822 25-02-2006 17:00:06 4.2 C 2.32 g/m*3 4.2 C 0 km/h
823 25-02-2006 17:10:06 3.9 C 2.34 g/m*3 3.9 C 0 km/h
824 25-02-2006 17:20:05 3.6 C 2.35 g/m*3 3.6 C 0 km/h
825 25-02-2006 17:30:05 3.3 C 2.37 g/m*3 3.3 C 0 km/h
Sensor: Nr:Datum:Temp:Abs-Feuchte:Windchill:Wind:
Aussen-T/F 826 25-02-2006 17:40:05 3.1 C 2.39 g/m*3 3.1 C 0 km/h
827 25-02-2006 17:50:05 2.6 C 2.43 g/m*3 2.6 C 0 km/h
828 25-02-2006 18:00:05 2.4 C 2.4 g/m*3 2.4 C 0 km/h
829 25-02-2006 18:10:05 2.3 C 2.44 g/m*3 2.3 C 0 km/h
830 25-02-2006 18:20:05 1.8 C 2.52 g/m*3 1.8 C 0 km/h
831 25-02-2006 18:30:05 1.6 C 2.54 g/m*3 1.6 C 0 km/h
832 25-02-2006 18:40:06 1.3 C 2.44 g/m*3 1.3 C 0 km/h
833 25-02-2006 18:50:06 1.1 C 2.4 g/m*3 1.1 C 0 km/h
834 25-02-2006 19:00:06 0.8 C 2.46 g/m*3 0.8 C 0 km/h
835 25-02-2006 19:10:06 0.6 C 2.42 g/m*3 0.6 C 0 km/h
836 25-02-2006 19:20:06 0.5 C 2.41 g/m*3 0.5 C 0 km/h
837 25-02-2006 19:30:06 0.2 C 2.41 g/m*3 0.2 C 0 km/h
838 25-02-2006 19:40:05 0 C 2.42 g/m*3 0 C 0 km/h
839 25-02-2006 19:50:06 -0.2 C 2.44 g/m*3 -0.2 C 0 km/h
840 25-02-2006 20:00:06 -0.4 C 2.45 g/m*3 -0.4 C 0 km/h
841 25-02-2006 20:10:05 -0.6 C 2.46 g/m*3 -0.6 C 0 km/h
842 25-02-2006 20:20:05 -0.7 C 2.49 g/m*3 -0.7 C 0 km/h
843 25-02-2006 20:30:05 -0.9 C 2.5 g/m*3 -0.9 C 0 km/h
844 25-02-2006 20:40:06 -1 C 2.53 g/m*3 -1 C 0 km/h
845 25-02-2006 20:50:06 -1.1 C 2.51 g/m*3 -1.1 C 0 km/h
846 25-02-2006 21:00:06 -1.2 C 2.54 g/m*3 -1.2 C 0 km/h
847 25-02-2006 21:10:06 -1.2 C 2.54 g/m*3 -1.2 C 0 km/h
848 25-02-2006 21:20:06 -1.4 C 2.51 g/m*3 -1.4 C 0 km/h
849 25-02-2006 21:30:07 -1.4 C 2.51 g/m*3 -1.4 C 0 km/h
850 25-02-2006 21:40:06 -1.6 C 2.47 g/m*3 -1.6 C 0 km/h
Sensor: Nr:Datum:Temp:Abs-Feuchte:Windchill:Wind:
Aussen-T/F 851 25-02-2006 21:50:06 -1.8 C 2.44 g/m*3 -1.8 C 0 km/h
852 25-02-2006 22:00:06 -1.9 C 2.42 g/m*3 -1.9 C 0 km/h
853 25-02-2006 22:10:06 -2.1 C 2.47 g/m*3 -2.1 C 0 km/h
854 25-02-2006 22:20:06 -2.1 C 2.47 g/m*3 -2.1 C 0 km/h
855 25-02-2006 22:30:06 -2.4 C 2.42 g/m*3 -2.4 C 0 km/h
856 25-02-2006 22:40:06 -2.4 C 2.42 g/m*3 -2.4 C 0 km/h
857 25-02-2006 22:50:06 -2.5 C 2.44 g/m*3 -2.5 C 0 km/h
858 25-02-2006 23:00:06 -2.6 C 2.42 g/m*3 -2.6 C 0 km/h
859 25-02-2006 23:10:06 -2.6 C 2.42 g/m*3 -2.6 C 0 km/h
860 25-02-2006 23:20:06 -2.6 C 2.46 g/m*3 -2.6 C 0 km/h
861 25-02-2006 23:30:07 -2.5 C 2.48 g/m*3 -2.5 C 0 km/h
862 25-02-2006 23:40:06 -2.5 C 2.48 g/m*3 -2.5 C 0 km/h
863 25-02-2006 23:50:06 -2.5 C 2.44 g/m*3 -2.5 C 0 km/h
864 26-02-2006 00:00:06 -2.6 C 2.42 g/m*3 -2.6 C 0 km/h
865 26-02-2006 00:10:06 -2.6 C 2.42 g/m*3 -2.6 C 0 km/h
866 26-02-2006 00:20:07 -2.6 C 2.42 g/m*3 -2.6 C 0 km/h
867 26-02-2006 00:30:07 -2.4 C 2.46 g/m*3 -2.4 C 0 km/h
868 26-02-2006 00:40:06 -2.1 C 2.47 g/m*3 -2.1 C 0 km/h
869 26-02-2006 00:50:06 -1.9 C 2.46 g/m*3 -1.9 C 0 km/h
870 26-02-2006 01:00:06 -1.9 C 2.42 g/m*3 -1.9 C 0 km/h
871 26-02-2006 01:10:06 -1.9 C 2.38 g/m*3 -1.9 C 0 km/h
872 26-02-2006 01:20:06 -1.9 C 2.38 g/m*3 -1.9 C 0 km/h
873 26-02-2006 01:30:07 -1.8 C 2.39 g/m*3 -1.8 C 0 km/h
874 26-02-2006 01:40:06 -1.8 C 2.39 g/m*3 -1.8 C 0 km/h
875 26-02-2006 01:50:06 -1.7 C 2.41 g/m*3 -1.7 C 0 km/h
Sensor: Nr:Datum:Temp:Abs-Feuchte:Windchill:Wind:
Aussen-T/F 876 26-02-2006 02:00:06 -1.7 C 2.37 g/m*3 -1.7 C 0 km/h
877 26-02-2006 02:10:06 -1.7 C 2.37 g/m*3 -1.7 C 0 km/h
878 26-02-2006 02:20:07 -1.7 C 2.37 g/m*3 -1.7 C 0 km/h
879 26-02-2006 02:30:07 -1.7 C 2.37 g/m*3 -1.7 C 0 km/h
880 26-02-2006 02:40:07 -1.6 C 2.38 g/m*3 -1.6 C 0 km/h
881 26-02-2006 02:51:08 -1.7 C 2.32 g/m*3 -1.7 C 0 km/h
882 26-02-2006 03:01:08 -1.7 C 2.32 g/m*3 -1.7 C 0 km/h
883 26-02-2006 03:11:08 -1.7 C 2.32 g/m*3 -1.7 C 0 km/h
884 26-02-2006 03:21:08 -1.7 C 2.32 g/m*3 -1.7 C 0 km/h
885 26-02-2006 03:31:08 -1.7 C 2.32 g/m*3 -1.7 C 0 km/h
886 26-02-2006 03:41:08 -1.7 C 2.32 g/m*3 -1.7 C 0 km/h
887 26-02-2006 03:51:08 -1.8 C 2.27 g/m*3 -1.8 C 0 km/h
888 26-02-2006 04:01:08 -1.8 C 2.31 g/m*3 -1.8 C 0 km/h
889 26-02-2006 04:11:08 -1.8 C 2.27 g/m*3 -1.8 C 0 km/h
890 26-02-2006 04:21:09 -1.8 C 2.27 g/m*3 -1.8 C 0 km/h
891 26-02-2006 04:31:08 -1.8 C 2.27 g/m*3 -1.8 C 0 km/h
892 26-02-2006 04:41:08 -1.8 C 2.22 g/m*3 -1.8 C 0 km/h
893 26-02-2006 04:51:08 -1.9 C 2.21 g/m*3 -1.9 C 0 km/h
894 26-02-2006 05:01:09 -1.9 C 2.25 g/m*3 -1.9 C 0 km/h
895 26-02-2006 05:11:09 -1.9 C 2.25 g/m*3 -1.9 C 0 km/h
896 26-02-2006 05:21:08 -1.9 C 2.25 g/m*3 -1.9 C 0 km/h
897 26-02-2006 05:31:08 -1.9 C 2.21 g/m*3 -1.9 C 0 km/h
898 26-02-2006 05:41:08 -1.9 C 2.25 g/m*3 -1.9 C 0 km/h
899 26-02-2006 05:51:08 -1.9 C 2.25 g/m*3 -1.9 C 0 km/h
900 26-02-2006 06:01:08 -1.9 C 2.25 g/m*3 -1.9 C 0 km/h
Sensor: Nr:Datum:Temp:Abs-Feuchte:Windchill:Wind:
Aussen-T/F 901 26-02-2006 06:11:08 -2 C 2.19 g/m*3 -2 C 0 km/h
902 26-02-2006 06:21:08 -2.1 C 2.18 g/m*3 -2.1 C 0 km/h
903 26-02-2006 06:31:08 -2.1 C 2.18 g/m*3 -2.1 C 0 km/h
904 26-02-2006 06:41:08 -2.1 C 2.22 g/m*3 -2.1 C 0 km/h
905 26-02-2006 06:51:08 -2.1 C 2.18 g/m*3 -2.1 C 0 km/h
906 26-02-2006 07:01:08 -2.2 C 2.2 g/m*3 -2.2 C 0 km/h
907 26-02-2006 07:11:08 -2.2 C 2.2 g/m*3 -2.2 C 0 km/h
908 26-02-2006 07:21:08 -2.1 C 2.22 g/m*3 -2.1 C 0 km/h
909 26-02-2006 07:31:09 -2.2 C 2.2 g/m*3 -2.2 C 0 km/h
910 26-02-2006 07:41:09 -2.2 C 2.16 g/m*3 -2.2 C 0 km/h
911 26-02-2006 07:51:08 -2.2 C 2.16 g/m*3 -2.2 C 0 km/h
912 26-02-2006 08:01:09 -2.2 C 2.2 g/m*3 -2.2 C 0 km/h
913 26-02-2006 08:11:09 -2.2 C 2.2 g/m*3 -2.2 C 0 km/h
914 26-02-2006 08:21:09 -2.2 C 2.2 g/m*3 -2.2 C 0 km/h
915 26-02-2006 08:31:08 -2.2 C 2.16 g/m*3 -2.2 C 0 km/h
916 26-02-2006 08:41:08 -2.2 C 2.24 g/m*3 -2.2 C 0 km/h
917 26-02-2006 08:51:09 -2.2 C 2.2 g/m*3 -2.2 C 0 km/h
918 26-02-2006 09:01:08 -2.1 C 2.26 g/m*3 -2.1 C 0 km/h
919 26-02-2006 09:11:08 -1.9 C 2.21 g/m*3 -1.9 C 0 km/h
920 26-02-2006 09:21:09 -1.7 C 2.2 g/m*3 -1.7 C 0 km/h
921 26-02-2006 09:31:09 -1.6 C 2.21 g/m*3 -1.6 C 0 km/h
922 26-02-2006 09:41:09 -1.4 C 2.24 g/m*3 -1.4 C 0 km/h
923 26-02-2006 09:51:08 -1.2 C 2.23 g/m*3 -1.2 C 0 km/h
924 26-02-2006 10:01:08 -0.9 C 2.32 g/m*3 -0.9 C 0 km/h
925 26-02-2006 10:11:08 -1 C 2.26 g/m*3 -1 C 0 km/h
Sensor: Nr:Datum:Temp:Abs-Feuchte:Windchill:Wind:
Aussen-T/F 926 26-02-2006 10:21:09 -1 C 2.22 g/m*3 -1 C 0 km/h
927 26-02-2006 10:31:09 -1.1 C 2.15 g/m*3 -1.1 C 0 km/h
928 26-02-2006 10:41:09 -1.1 C 2.2 g/m*3 -1.1 C 0 km/h
929 26-02-2006 10:51:09 -1.2 C 2.27 g/m*3 -1.2 C 0 km/h
930 26-02-2006 11:01:08 -1.3 C 2.3 g/m*3 -1.3 C 0 km/h
931 26-02-2006 11:11:08 -1.2 C 2.32 g/m*3 -1.2 C 0 km/h
932 26-02-2006 11:21:08 -1.1 C 2.38 g/m*3 -1.1 C 0 km/h
933 26-02-2006 11:31:09 -0.6 C 2.42 g/m*3 -0.6 C 0 km/h
934 26-02-2006 11:41:09 -0.5 C 2.39 g/m*3 -0.5 C 0 km/h
935 26-02-2006 11:51:09 -0.5 C 2.39 g/m*3 -0.5 C 0 km/h
936 26-02-2006 12:01:09 -0.3 C 2.42 g/m*3 -0.3 C 0 km/h
937 26-02-2006 12:11:09 0.4 C 2.49 g/m*3 0.4 C 0 km/h
938 26-02-2006 12:21:09 0.6 C 2.37 g/m*3 0.6 C 0 km/h
939 26-02-2006 12:31:08 0.7 C 2.39 g/m*3 0.7 C 0 km/h
940 26-02-2006 12:41:08 0.7 C 2.34 g/m*3 0.7 C 0 km/h
941 26-02-2006 12:51:09 1 C 2.28 g/m*3 1 C 0 km/h
942 26-02-2006 13:01:09 1.1 C 2.25 g/m*3 1.1 C 0 km/h
943 26-02-2006 13:11:09 1 C 2.23 g/m*3 1 C 0 km/h
944 26-02-2006 13:21:09 1 C 2.08 g/m*3 1 C 0 km/h
945 26-02-2006 13:31:09 1 C 2.02 g/m*3 1 C 0 km/h
946 26-02-2006 13:41:09 1.1 C 2.09 g/m*3 1.1 C 0 km/h
947 26-02-2006 13:51:09 1.3 C 2.01 g/m*3 1.3 C 0 km/h
948 26-02-2006 14:01:10 1.4 C 2.03 g/m*3 1.4 C 0 km/h
949 26-02-2006 14:11:10 1.3 C 2.07 g/m*3 1.3 C 0 km/h
950 26-02-2006 14:21:09 1.4 C 2.13 g/m*3 1.4 C 0 km/h
Sensor: Nr:Datum:Temp:Abs-Feuchte:Windchill:Wind:
Aussen-T/F 951 26-02-2006 14:31:09 1.5 C 2.15 g/m*3 1.5 C 0 km/h
952 26-02-2006 14:41:09 1.7 C 2.23 g/m*3 1.7 C 0 km/h
953 26-02-2006 14:51:09 1.8 C 2.25 g/m*3 1.8 C 0 km/h
954 26-02-2006 15:01:09 1.8 C 2.25 g/m*3 1.8 C 0 km/h
955 26-02-2006 15:11:09 1.3 C 2.33 g/m*3 1.3 C 0 km/h
956 26-02-2006 15:21:09 1.2 C 2.37 g/m*3 1.2 C 0 km/h
957 26-02-2006 15:31:10 1.5 C 2.42 g/m*3 1.5 C 0 km/h
958 26-02-2006 15:41:10 1.7 C 2.45 g/m*3 1.7 C 0 km/h
959 26-02-2006 15:51:09 1.5 C 2.36 g/m*3 1.5 C 0 km/h
960 26-02-2006 16:01:09 1.3 C 2.38 g/m*3 1.3 C 0 km/h
961 26-02-2006 16:11:09 1.5 C 2.42 g/m*3 1.5 C 0 km/h
962 26-02-2006 16:21:09 1.4 C 2.45 g/m*3 1.4 C 0 km/h
963 26-02-2006 16:31:09 1.5 C 2.47 g/m*3 1.5 C 0 km/h
964 26-02-2006 16:41:09 1.4 C 2.45 g/m*3 1.4 C 0 km/h
965 26-02-2006 16:51:09 1.4 C 2.45 g/m*3 1.4 C 0 km/h
966 26-02-2006 17:01:09 1.3 C 2.49 g/m*3 1.3 C 0 km/h
967 26-02-2006 17:11:09 1.3 C 2.49 g/m*3 1.3 C 0 km/h
968 26-02-2006 17:21:09 1.3 C 2.54 g/m*3 1.3 C 0 km/h
969 26-02-2006 17:31:10 1.2 C 2.58 g/m*3 1.2 C 0 km/h
970 26-02-2006 17:41:10 1 C 2.54 g/m*3 1 C 0 km/h
971 26-02-2006 17:51:09 0.4 C 2.54 g/m*3 0.4 C 0 km/h
972 26-02-2006 18:01:10 0 C 2.57 g/m*3 0 C 0 km/h
973 26-02-2006 18:11:10 -0.5 C 2.62 g/m*3 -0.5 C 0 km/h
974 26-02-2006 18:21:10 -0.8 C 2.66 g/m*3 -0.8 C 0 km/h
975 26-02-2006 18:31:09 -1 C 2.67 g/m*3 -1 C 0 km/h
Sensor: Nr:Datum:Temp:Abs-Feuchte:Windchill:Wind:
Aussen-T/F 976 26-02-2006 18:41:09 -1.2 C 2.63 g/m*3 -1.2 C 0 km/h
977 26-02-2006 18:51:10 -1.3 C 2.7 g/m*3 -1.3 C 0 km/h
978 26-02-2006 19:01:09 -1.3 C 2.7 g/m*3 -1.3 C 0 km/h
979 26-02-2006 19:11:09 -0.9 C 2.73 g/m*3 -0.9 C 0 km/h
980 26-02-2006 19:21:09 -0.7 C 2.77 g/m*3 -0.7 C 0 km/h
981 26-02-2006 19:31:10 -0.7 C 2.77 g/m*3 -0.7 C 0 km/h
982 26-02-2006 19:41:10 -0.6 C 2.84 g/m*3 -0.6 C 0 km/h
983 26-02-2006 19:51:10 -0.8 C 2.84 g/m*3 -0.8 C 0 km/h
984 26-02-2006 20:01:09 -1 C 2.89 g/m*3 -1 C 0 km/h
985 26-02-2006 20:11:09 -1.1 C 2.96 g/m*3 -1.1 C 0 km/h
986 26-02-2006 20:21:09 -1.4 C 2.9 g/m*3 -1.4 C 0 km/h
987 26-02-2006 20:31:10 -1.4 C 3.03 g/m*3 -1.4 C 0 km/h
988 26-02-2006 20:41:10 -1.8 C 2.95 g/m*3 -1.8 C 0 km/h
989 26-02-2006 20:51:09 -1.9 C 2.97 g/m*3 -1.9 C 0 km/h
990 26-02-2006 21:01:10 -2 C 2.99 g/m*3 -2 C 0 km/h
991 26-02-2006 21:11:10 -2.1 C 3.01 g/m*3 -2.1 C 0 km/h
992 26-02-2006 21:21:10 -2.3 C 2.97 g/m*3 -2.3 C 0 km/h
993 26-02-2006 21:31:10 -2.6 C 2.91 g/m*3 -2.6 C 0 km/h
994 26-02-2006 21:41:10 -2.7 C 2.89 g/m*3 -2.7 C 0 km/h
995 26-02-2006 21:51:10 -2.7 C 2.93 g/m*3 -2.7 C 0 km/h
996 26-02-2006 22:01:10 -2.7 C 2.93 g/m*3 -2.7 C 0 km/h
997 26-02-2006 22:11:10 -2.8 C 2.91 g/m*3 -2.8 C 0 km/h
998 26-02-2006 22:21:10 -2.9 C 2.93 g/m*3 -2.9 C 0 km/h
999 26-02-2006 22:31:10 -3 C 2.91 g/m*3 -3 C 0 km/h
1000 26-02-2006 22:41:10 -3.2 C 2.83 g/m*3 -3.2 C 0 km/h
Sensor: Nr:Datum:Temp:Abs-Feuchte:Windchill:Wind:
Aussen-T/F 1001 26-02-2006 22:51:10 -3.2 C 2.87 g/m*3 -3.2 C 0 km/h
1002 26-02-2006 23:01:10 -3.4 C 2.83 g/m*3 -3.4 C 0 km/h
1003 26-02-2006 23:11:10 -3.4 C 2.86 g/m*3 -3.4 C 0 km/h
1004 26-02-2006 23:21:10 -3.4 C 2.9 g/m*3 -3.4 C 0 km/h
1005 26-02-2006 23:31:10 -3.4 C 2.9 g/m*3 -3.4 C 0 km/h
1006 26-02-2006 23:41:10 -3.4 C 2.94 g/m*3 -3.4 C 0 km/h
1007 26-02-2006 23:51:10 -3.4 C 2.98 g/m*3 -3.4 C 0 km/h

Legende:
   Min
   Max


Maximal/Minimal-Werte vom 20.02.2006 - 26.02.2006

Sensor Min Max Avg
Temp
(Aussen-T/F)
-3.4 °C
26-02-2006  23:01:10
7 °C
24-02-2006  14:39:02
1.79 °C
Abs-Feuchte
(Aussen-T/F)
2.01 g/m*3
26-02-2006  13:51:09
5.86 g/m*3
20-02-2006  12:35:40
3.48 g/m*3
Windchill
(Aussen-T/F)
-3.4 C
26-02-2006  23:01:10
7 C
24-02-2006  14:39:02
1.79 C

Die Daten stammen von einer Davis Vantage Pro 2 Wetter-Station und werden unter Linux mit der Software wview2wettercgi und aufbereitet. Alle Angaben erfolgen ohne Gewähr für ihre Vollständigkeit oder Richtigkeit.
Kontakt: Rainer Krienke krienke@uni-koblenz.de . Meine Webseiten an der Uni Koblenz oder privat.
Version: $Revision: 0.78 $